<?xml version="1.0" encoding="UTF-8" standalone="no" ?>
<gpx xmlns="http://www.topografix.com/GPX/1/1" xmlns:xsi="http://www.w3.org/2001/XMLSchema-instance" xsi:schemaLocation="http://www.topografix.com/GPX/1/1 http://www.topografix.com/GPX/1/1/gpx.xsd" version="1.1" creator="VisuGPX - https://www.visugpx.com">
  <metadata>
    <name>VTT 2013</name>
    <desc><![CDATA[tentative 2 : j4]]></desc>
  </metadata>
  <trk>
    <name><![CDATA[j 4]]></name>
    <trkseg>
      <trkpt lat="44.63506" lon="4.09731">
        <ele>1310.9</ele>
        <time>2007-10-20T10:40:06Z</time>
      </trkpt>
      <trkpt lat="44.6356" lon="4.09706">
        <ele>1314.3</ele>
        <time>2007-10-20T10:40:32Z</time>
      </trkpt>
      <trkpt lat="44.63607" lon="4.09667">
        <ele>1320.5</ele>
        <time>2007-10-20T10:40:56Z</time>
      </trkpt>
      <trkpt lat="44.63648" lon="4.09633">
        <ele>1321.9</ele>
        <time>2007-10-20T10:41:14Z</time>
      </trkpt>
      <trkpt lat="44.6366" lon="4.09544">
        <ele>1325.8</ele>
        <time>2007-10-20T10:41:47Z</time>
      </trkpt>
      <trkpt lat="44.63708" lon="4.09451">
        <ele>1326.8</ele>
        <time>2007-10-20T10:42:22Z</time>
      </trkpt>
      <trkpt lat="44.63798" lon="4.09398">
        <ele>1330.6</ele>
        <time>2007-10-20T10:43:03Z</time>
      </trkpt>
      <trkpt lat="44.63885" lon="4.09405">
        <ele>1334.9</ele>
        <time>2007-10-20T10:43:49Z</time>
      </trkpt>
      <trkpt lat="44.63913" lon="4.09416">
        <ele>1337.3</ele>
        <time>2007-10-20T10:44:04Z</time>
      </trkpt>
      <trkpt lat="44.63926" lon="4.0939">
        <ele>1339.7</ele>
        <time>2007-10-20T10:44:15Z</time>
      </trkpt>
      <trkpt lat="44.63961" lon="4.09332">
        <ele>1346</ele>
        <time>2007-10-20T10:44:47Z</time>
      </trkpt>
      <trkpt lat="44.63976" lon="4.09313">
        <ele>1348.4</ele>
        <time>2007-10-20T10:44:58Z</time>
      </trkpt>
      <trkpt lat="44.63962" lon="4.09293">
        <ele>1350.8</ele>
        <time>2007-10-20T10:45:13Z</time>
      </trkpt>
      <trkpt lat="44.63916" lon="4.09265">
        <ele>1355.6</ele>
        <time>2007-10-20T10:45:45Z</time>
      </trkpt>
      <trkpt lat="44.63909" lon="4.09225">
        <ele>1359</ele>
        <time>2007-10-20T10:46:03Z</time>
      </trkpt>
      <trkpt lat="44.63917" lon="4.09177">
        <ele>1362.8</ele>
        <time>2007-10-20T10:46:26Z</time>
      </trkpt>
      <trkpt lat="44.63956" lon="4.09127">
        <ele>1368.1</ele>
        <time>2007-10-20T10:46:59Z</time>
      </trkpt>
      <trkpt lat="44.63977" lon="4.09105">
        <ele>1371.5</ele>
        <time>2007-10-20T10:47:17Z</time>
      </trkpt>
      <trkpt lat="44.6401" lon="4.09071">
        <ele>1376.3</ele>
        <time>2007-10-20T10:47:46Z</time>
      </trkpt>
      <trkpt lat="44.64034" lon="4.09049">
        <ele>1380.1</ele>
        <time>2007-10-20T10:48:05Z</time>
      </trkpt>
      <trkpt lat="44.64069" lon="4.09001">
        <ele>1384.9</ele>
        <time>2007-10-20T10:48:36Z</time>
      </trkpt>
      <trkpt lat="44.64105" lon="4.0891">
        <ele>1388.8</ele>
        <time>2007-10-20T10:49:17Z</time>
      </trkpt>
      <trkpt lat="44.64121" lon="4.08872">
        <ele>1391.2</ele>
        <time>2007-10-20T10:49:33Z</time>
      </trkpt>
      <trkpt lat="44.64156" lon="4.08841">
        <ele>1393.6</ele>
        <time>2007-10-20T10:49:52Z</time>
      </trkpt>
      <trkpt lat="44.64287" lon="4.08774">
        <ele>1397.9</ele>
        <time>2007-10-20T10:51:00Z</time>
      </trkpt>
      <trkpt lat="44.64314" lon="4.08768">
        <ele>1398.9</ele>
        <time>2007-10-20T10:51:13Z</time>
      </trkpt>
      <trkpt lat="44.64341" lon="4.08702">
        <ele>1404.6</ele>
        <time>2007-10-20T10:51:43Z</time>
      </trkpt>
      <trkpt lat="44.64338" lon="4.08679">
        <ele>1408.5</ele>
        <time>2007-10-20T10:51:57Z</time>
      </trkpt>
      <trkpt lat="44.64338" lon="4.08681">
        <ele>1408</ele>
        <time>2007-10-20T10:53:13Z</time>
      </trkpt>
      <trkpt lat="44.64341" lon="4.08678">
        <ele>1405.6</ele>
        <time>2007-10-20T10:55:14Z</time>
      </trkpt>
      <trkpt lat="44.64342" lon="4.08681">
        <ele>1405.1</ele>
        <time>2007-10-20T11:43:23Z</time>
      </trkpt>
      <trkpt lat="44.64332" lon="4.08605">
        <ele>1409.4</ele>
        <time>2007-10-20T11:43:45Z</time>
      </trkpt>
      <trkpt lat="44.64339" lon="4.08537">
        <ele>1409.4</ele>
        <time>2007-10-20T11:44:05Z</time>
      </trkpt>
      <trkpt lat="44.64353" lon="4.08473">
        <ele>1413.8</ele>
        <time>2007-10-20T11:44:25Z</time>
      </trkpt>
      <trkpt lat="44.64382" lon="4.08387">
        <ele>1419</ele>
        <time>2007-10-20T11:45:00Z</time>
      </trkpt>
      <trkpt lat="44.64406" lon="4.08296">
        <ele>1423.4</ele>
        <time>2007-10-20T11:45:39Z</time>
      </trkpt>
      <trkpt lat="44.64419" lon="4.08267">
        <ele>1425.8</ele>
        <time>2007-10-20T11:45:56Z</time>
      </trkpt>
      <trkpt lat="44.64436" lon="4.08252">
        <ele>1431.1</ele>
        <time>2007-10-20T11:46:11Z</time>
      </trkpt>
      <trkpt lat="44.64447" lon="4.08246">
        <ele>1432</ele>
        <time>2007-10-20T11:46:25Z</time>
      </trkpt>
      <trkpt lat="44.64447" lon="4.08238">
        <ele>1432</ele>
        <time>2007-10-20T11:46:30Z</time>
      </trkpt>
      <trkpt lat="44.6445" lon="4.08202">
        <ele>1434.4</ele>
        <time>2007-10-20T11:46:57Z</time>
      </trkpt>
      <trkpt lat="44.64459" lon="4.08155">
        <ele>1438.3</ele>
        <time>2007-10-20T11:47:56Z</time>
      </trkpt>
      <trkpt lat="44.64467" lon="4.08042">
        <ele>1433.9</ele>
        <time>2007-10-20T11:48:31Z</time>
      </trkpt>
      <trkpt lat="44.64475" lon="4.08021">
        <ele>1430.1</ele>
        <time>2007-10-20T11:48:39Z</time>
      </trkpt>
      <trkpt lat="44.64468" lon="4.07987">
        <ele>1435.4</ele>
        <time>2007-10-20T11:48:55Z</time>
      </trkpt>
      <trkpt lat="44.64471" lon="4.07951">
        <ele>1437.3</ele>
        <time>2007-10-20T11:49:11Z</time>
      </trkpt>
      <trkpt lat="44.64475" lon="4.07906">
        <ele>1431.5</ele>
        <time>2007-10-20T11:49:22Z</time>
      </trkpt>
      <trkpt lat="44.64485" lon="4.07862">
        <ele>1425.3</ele>
        <time>2007-10-20T11:49:31Z</time>
      </trkpt>
      <trkpt lat="44.64494" lon="4.07807">
        <ele>1418.1</ele>
        <time>2007-10-20T11:49:39Z</time>
      </trkpt>
      <trkpt lat="44.64497" lon="4.07788">
        <ele>1418.6</ele>
        <time>2007-10-20T11:49:46Z</time>
      </trkpt>
      <trkpt lat="44.64507" lon="4.07757">
        <ele>1413.8</ele>
        <time>2007-10-20T11:49:58Z</time>
      </trkpt>
      <trkpt lat="44.64527" lon="4.07692">
        <ele>1402.7</ele>
        <time>2007-10-20T11:50:13Z</time>
      </trkpt>
      <trkpt lat="44.64532" lon="4.07679">
        <ele>1400.8</ele>
        <time>2007-10-20T11:50:16Z</time>
      </trkpt>
      <trkpt lat="44.64536" lon="4.07666">
        <ele>1399.8</ele>
        <time>2007-10-20T11:50:18Z</time>
      </trkpt>
      <trkpt lat="44.6454" lon="4.0765">
        <ele>1396.5</ele>
        <time>2007-10-20T11:50:43Z</time>
      </trkpt>
      <trkpt lat="44.64541" lon="4.07651">
        <ele>1394.5</ele>
        <time>2007-10-20T11:54:47Z</time>
      </trkpt>
      <trkpt lat="44.64548" lon="4.07634">
        <ele>1395</ele>
        <time>2007-10-20T11:55:13Z</time>
      </trkpt>
      <trkpt lat="44.64553" lon="4.0763">
        <ele>1397.4</ele>
        <time>2007-10-20T11:57:07Z</time>
      </trkpt>
      <trkpt lat="44.64544" lon="4.07627">
        <ele>1396.9</ele>
        <time>2007-10-20T12:00:27Z</time>
      </trkpt>
      <trkpt lat="44.64544" lon="4.07627">
        <ele>1397.9</ele>
        <time>2007-10-20T12:01:27Z</time>
      </trkpt>
      <trkpt lat="44.64548" lon="4.07634">
        <ele>1399.3</ele>
        <time>2007-10-20T12:05:58Z</time>
      </trkpt>
      <trkpt lat="44.64564" lon="4.07599">
        <ele>1398.4</ele>
        <time>2007-10-20T12:07:14Z</time>
      </trkpt>
      <trkpt lat="44.64577" lon="4.0757">
        <ele>1397.4</ele>
        <time>2007-10-20T12:07:28Z</time>
      </trkpt>
      <trkpt lat="44.64629" lon="4.07558">
        <ele>1394.5</ele>
        <time>2007-10-20T12:08:03Z</time>
      </trkpt>
      <trkpt lat="44.64646" lon="4.07564">
        <ele>1394.5</ele>
        <time>2007-10-20T12:08:26Z</time>
      </trkpt>
      <trkpt lat="44.64661" lon="4.0754">
        <ele>1390.7</ele>
        <time>2007-10-20T12:08:42Z</time>
      </trkpt>
      <trkpt lat="44.6467" lon="4.07528">
        <ele>1390.7</ele>
        <time>2007-10-20T12:08:57Z</time>
      </trkpt>
      <trkpt lat="44.64681" lon="4.07531">
        <ele>1385.9</ele>
        <time>2007-10-20T12:09:55Z</time>
      </trkpt>
      <trkpt lat="44.64707" lon="4.07535">
        <ele>1382</ele>
        <time>2007-10-20T12:10:11Z</time>
      </trkpt>
      <trkpt lat="44.64716" lon="4.07548">
        <ele>1376.7</ele>
        <time>2007-10-20T12:11:15Z</time>
      </trkpt>
      <trkpt lat="44.64719" lon="4.07563">
        <ele>1377.2</ele>
        <time>2007-10-20T12:11:35Z</time>
      </trkpt>
      <trkpt lat="44.64735" lon="4.07556">
        <ele>1369.5</ele>
        <time>2007-10-20T12:12:01Z</time>
      </trkpt>
      <trkpt lat="44.64746" lon="4.07544">
        <ele>1363.8</ele>
        <time>2007-10-20T12:13:17Z</time>
      </trkpt>
      <trkpt lat="44.64777" lon="4.07531">
        <ele>1354.6</ele>
        <time>2007-10-20T12:13:53Z</time>
      </trkpt>
      <trkpt lat="44.64763" lon="4.07555">
        <ele>1349.3</ele>
        <time>2007-10-20T12:14:02Z</time>
      </trkpt>
      <trkpt lat="44.64766" lon="4.07559">
        <ele>1349.3</ele>
        <time>2007-10-20T12:14:04Z</time>
      </trkpt>
      <trkpt lat="44.64772" lon="4.07588">
        <ele>1343.1</ele>
        <time>2007-10-20T12:14:32Z</time>
      </trkpt>
      <trkpt lat="44.64792" lon="4.076">
        <ele>1335.9</ele>
        <time>2007-10-20T12:14:54Z</time>
      </trkpt>
      <trkpt lat="44.64797" lon="4.07612">
        <ele>1335.9</ele>
        <time>2007-10-20T12:15:03Z</time>
      </trkpt>
      <trkpt lat="44.6487" lon="4.07624">
        <ele>1322.4</ele>
        <time>2007-10-20T12:15:44Z</time>
      </trkpt>
      <trkpt lat="44.64875" lon="4.07624">
        <ele>1274.4</ele>
        <time>2007-10-20T12:16:10Z</time>
      </trkpt>
      <trkpt lat="44.64876" lon="4.07625">
        <ele>1279.7</ele>
        <time>2007-10-20T12:16:45Z</time>
      </trkpt>
      <trkpt lat="44.64886" lon="4.07622">
        <ele>1294.1</ele>
        <time>2007-10-20T12:17:54Z</time>
      </trkpt>
      <trkpt lat="44.64912" lon="4.07644">
        <ele>1284</ele>
        <time>2007-10-20T12:19:34Z</time>
      </trkpt>
      <trkpt lat="44.64935" lon="4.07667">
        <ele>1270.5</ele>
        <time>2007-10-20T12:20:14Z</time>
      </trkpt>
      <trkpt lat="44.64926" lon="4.07701">
        <ele>1261.9</ele>
        <time>2007-10-20T12:20:27Z</time>
      </trkpt>
      <trkpt lat="44.6494" lon="4.07691">
        <ele>1221.5</ele>
        <time>2007-10-20T12:21:40Z</time>
      </trkpt>
      <trkpt lat="44.64944" lon="4.07691">
        <ele>1229.2</ele>
        <time>2007-10-20T12:23:26Z</time>
      </trkpt>
      <trkpt lat="44.64998" lon="4.07722">
        <ele>1225.3</ele>
        <time>2007-10-20T12:24:15Z</time>
      </trkpt>
      <trkpt lat="44.65045" lon="4.07798">
        <ele>1205.1</ele>
        <time>2007-10-20T12:25:04Z</time>
      </trkpt>
      <trkpt lat="44.65039" lon="4.07807">
        <ele>1174.9</ele>
        <time>2007-10-20T12:26:43Z</time>
      </trkpt>
      <trkpt lat="44.65034" lon="4.07833">
        <ele>1157.1</ele>
        <time>2007-10-20T12:27:17Z</time>
      </trkpt>
      <trkpt lat="44.65062" lon="4.07826">
        <ele>1155.6</ele>
        <time>2007-10-20T12:27:26Z</time>
      </trkpt>
      <trkpt lat="44.6511" lon="4.07813">
        <ele>1148.9</ele>
        <time>2007-10-20T12:27:41Z</time>
      </trkpt>
      <trkpt lat="44.65112" lon="4.07813">
        <ele>1148.9</ele>
        <time>2007-10-20T12:27:42Z</time>
      </trkpt>
      <trkpt lat="44.65115" lon="4.07818">
        <ele>1142.2</ele>
        <time>2007-10-20T12:28:09Z</time>
      </trkpt>
      <trkpt lat="44.65126" lon="4.07818">
        <ele>1135.9</ele>
        <time>2007-10-20T12:28:36Z</time>
      </trkpt>
      <trkpt lat="44.65137" lon="4.07828">
        <ele>1128.7</ele>
        <time>2007-10-20T12:29:35Z</time>
      </trkpt>
      <trkpt lat="44.65133" lon="4.07915">
        <ele>1110.5</ele>
        <time>2007-10-20T12:30:03Z</time>
      </trkpt>
      <trkpt lat="44.65135" lon="4.07929">
        <ele>1103.7</ele>
        <time>2007-10-20T12:30:17Z</time>
      </trkpt>
      <trkpt lat="44.65135" lon="4.07932">
        <ele>1099.9</ele>
        <time>2007-10-20T12:30:35Z</time>
      </trkpt>
      <trkpt lat="44.65135" lon="4.07933">
        <ele>1093.2</ele>
        <time>2007-10-20T12:30:52Z</time>
      </trkpt>
      <trkpt lat="44.65134" lon="4.07934">
        <ele>1085.9</ele>
        <time>2007-10-20T12:31:49Z</time>
      </trkpt>
      <trkpt lat="44.65139" lon="4.07936">
        <ele>1086.4</ele>
        <time>2007-10-20T12:32:09Z</time>
      </trkpt>
      <trkpt lat="44.65139" lon="4.07929">
        <ele>1077.8</ele>
        <time>2007-10-20T12:33:43Z</time>
      </trkpt>
      <trkpt lat="44.65148" lon="4.08015">
        <ele>1063.8</ele>
        <time>2007-10-20T12:34:24Z</time>
      </trkpt>
      <trkpt lat="44.65155" lon="4.08017">
        <ele>1060.5</ele>
        <time>2007-10-20T12:34:27Z</time>
      </trkpt>
      <trkpt lat="44.65156" lon="4.08032">
        <ele>1053.3</ele>
        <time>2007-10-20T12:34:36Z</time>
      </trkpt>
      <trkpt lat="44.65156" lon="4.08037">
        <ele>1051.8</ele>
        <time>2007-10-20T12:34:41Z</time>
      </trkpt>
      <trkpt lat="44.65174" lon="4.08058">
        <ele>1046.1</ele>
        <time>2007-10-20T12:34:50Z</time>
      </trkpt>
      <trkpt lat="44.65181" lon="4.08069">
        <ele>1041.7</ele>
        <time>2007-10-20T12:34:54Z</time>
      </trkpt>
      <trkpt lat="44.65164" lon="4.08112">
        <ele>1032.6</ele>
        <time>2007-10-20T12:35:10Z</time>
      </trkpt>
      <trkpt lat="44.65163" lon="4.08123">
        <ele>1028.3</ele>
        <time>2007-10-20T12:35:25Z</time>
      </trkpt>
      <trkpt lat="44.65173" lon="4.08148">
        <ele>1023</ele>
        <time>2007-10-20T12:35:41Z</time>
      </trkpt>
      <trkpt lat="44.65178" lon="4.08155">
        <ele>1021.1</ele>
        <time>2007-10-20T12:35:44Z</time>
      </trkpt>
      <trkpt lat="44.65191" lon="4.08174">
        <ele>1016.7</ele>
        <time>2007-10-20T12:35:53Z</time>
      </trkpt>
      <trkpt lat="44.65191" lon="4.08175">
        <ele>1014.8</ele>
        <time>2007-10-20T12:37:26Z</time>
      </trkpt>
      <trkpt lat="44.65189" lon="4.08177">
        <ele>1013.4</ele>
        <time>2007-10-20T12:39:11Z</time>
      </trkpt>
      <trkpt lat="44.65197" lon="4.08227">
        <ele>1013.8</ele>
        <time>2007-10-20T12:39:38Z</time>
      </trkpt>
      <trkpt lat="44.65246" lon="4.08275">
        <ele>1005.7</ele>
        <time>2007-10-20T12:40:12Z</time>
      </trkpt>
      <trkpt lat="44.65309" lon="4.08398">
        <ele>993.7</ele>
        <time>2007-10-20T12:40:46Z</time>
      </trkpt>
      <trkpt lat="44.65323" lon="4.08442">
        <ele>981.2</ele>
        <time>2007-10-20T12:41:19Z</time>
      </trkpt>
      <trkpt lat="44.65329" lon="4.08448">
        <ele>975.9</ele>
        <time>2007-10-20T12:43:16Z</time>
      </trkpt>
      <trkpt lat="44.6535" lon="4.08468">
        <ele>971.5</ele>
        <time>2007-10-20T12:43:51Z</time>
      </trkpt>
      <trkpt lat="44.65395" lon="4.08578">
        <ele>962.9</ele>
        <time>2007-10-20T12:44:09Z</time>
      </trkpt>
      <trkpt lat="44.65402" lon="4.08575">
        <ele>946.1</ele>
        <time>2007-10-20T12:44:53Z</time>
      </trkpt>
      <trkpt lat="44.65404" lon="4.08575">
        <ele>948</ele>
        <time>2007-10-20T12:46:26Z</time>
      </trkpt>
      <trkpt lat="44.65402" lon="4.08573">
        <ele>954.2</ele>
        <time>2007-10-20T12:46:54Z</time>
      </trkpt>
      <trkpt lat="44.65401" lon="4.08565">
        <ele>951.4</ele>
        <time>2007-10-20T12:47:16Z</time>
      </trkpt>
      <trkpt lat="44.65407" lon="4.08573">
        <ele>948</ele>
        <time>2007-10-20T12:47:32Z</time>
      </trkpt>
      <trkpt lat="44.65409" lon="4.08582">
        <ele>943.7</ele>
        <time>2007-10-20T12:48:31Z</time>
      </trkpt>
      <trkpt lat="44.65409" lon="4.08588">
        <ele>936.5</ele>
        <time>2007-10-20T12:49:41Z</time>
      </trkpt>
      <trkpt lat="44.65408" lon="4.08587">
        <ele>942.2</ele>
        <time>2007-10-20T12:51:11Z</time>
      </trkpt>
      <trkpt lat="44.65417" lon="4.08636">
        <ele>940.3</ele>
        <time>2007-10-20T12:51:35Z</time>
      </trkpt>
      <trkpt lat="44.65493" lon="4.08715">
        <ele>945.1</ele>
        <time>2007-10-20T12:52:18Z</time>
      </trkpt>
      <trkpt lat="44.65564" lon="4.08779">
        <ele>951.4</ele>
        <time>2007-10-20T12:53:03Z</time>
      </trkpt>
      <trkpt lat="44.65611" lon="4.08849">
        <ele>959.1</ele>
        <time>2007-10-20T12:53:37Z</time>
      </trkpt>
      <trkpt lat="44.65603" lon="4.08894">
        <ele>964.3</ele>
        <time>2007-10-20T12:53:54Z</time>
      </trkpt>
      <trkpt lat="44.65585" lon="4.08936">
        <ele>967.7</ele>
        <time>2007-10-20T12:54:11Z</time>
      </trkpt>
      <trkpt lat="44.6557" lon="4.0898">
        <ele>971.1</ele>
        <time>2007-10-20T12:54:29Z</time>
      </trkpt>
      <trkpt lat="44.65606" lon="4.09058">
        <ele>977.3</ele>
        <time>2007-10-20T12:55:02Z</time>
      </trkpt>
      <trkpt lat="44.65633" lon="4.09103">
        <ele>981.6</ele>
        <time>2007-10-20T12:55:22Z</time>
      </trkpt>
      <trkpt lat="44.65649" lon="4.09155">
        <ele>985.5</ele>
        <time>2007-10-20T12:55:43Z</time>
      </trkpt>
      <trkpt lat="44.65661" lon="4.09253">
        <ele>991.3</ele>
        <time>2007-10-20T12:56:18Z</time>
      </trkpt>
      <trkpt lat="44.65671" lon="4.09281">
        <ele>992.7</ele>
        <time>2007-10-20T12:56:35Z</time>
      </trkpt>
      <trkpt lat="44.65669" lon="4.09286">
        <ele>992.7</ele>
        <time>2007-10-20T12:56:53Z</time>
      </trkpt>
      <trkpt lat="44.65671" lon="4.09279">
        <ele>992.2</ele>
        <time>2007-10-20T12:57:19Z</time>
      </trkpt>
      <trkpt lat="44.65669" lon="4.09283">
        <ele>996.5</ele>
        <time>2007-10-20T12:59:17Z</time>
      </trkpt>
      <trkpt lat="44.65667" lon="4.09291">
        <ele>994.6</ele>
        <time>2007-10-20T13:04:43Z</time>
      </trkpt>
      <trkpt lat="44.65666" lon="4.09289">
        <ele>994.6</ele>
        <time>2007-10-20T13:04:59Z</time>
      </trkpt>
      <trkpt lat="44.65554" lon="4.09229">
        <ele>992.7</ele>
        <time>2007-10-20T13:05:30Z</time>
      </trkpt>
      <trkpt lat="44.65416" lon="4.09255">
        <ele>987.4</ele>
        <time>2007-10-20T13:06:02Z</time>
      </trkpt>
      <trkpt lat="44.65401" lon="4.09276">
        <ele>988.4</ele>
        <time>2007-10-20T13:06:13Z</time>
      </trkpt>
      <trkpt lat="44.65407" lon="4.09266">
        <ele>988.9</ele>
        <time>2007-10-20T13:06:39Z</time>
      </trkpt>
      <trkpt lat="44.65383" lon="4.09296">
        <ele>993.2</ele>
        <time>2007-10-20T13:07:08Z</time>
      </trkpt>
      <trkpt lat="44.65351" lon="4.09332">
        <ele>989.8</ele>
        <time>2007-10-20T13:07:21Z</time>
      </trkpt>
      <trkpt lat="44.65407" lon="4.09384">
        <ele>987.4</ele>
        <time>2007-10-20T13:07:42Z</time>
      </trkpt>
      <trkpt lat="44.65395" lon="4.09465">
        <ele>986.4</ele>
        <time>2007-10-20T13:08:02Z</time>
      </trkpt>
      <trkpt lat="44.6539" lon="4.09485">
        <ele>986.9</ele>
        <time>2007-10-20T13:08:24Z</time>
      </trkpt>
      <trkpt lat="44.65406" lon="4.09473">
        <ele>985.5</ele>
        <time>2007-10-20T13:08:29Z</time>
      </trkpt>
      <trkpt lat="44.65458" lon="4.09434">
        <ele>976.8</ele>
        <time>2007-10-20T13:08:43Z</time>
      </trkpt>
      <trkpt lat="44.65526" lon="4.09445">
        <ele>956.2</ele>
        <time>2007-10-20T13:09:15Z</time>
      </trkpt>
      <trkpt lat="44.65542" lon="4.09471">
        <ele>949</ele>
        <time>2007-10-20T13:09:24Z</time>
      </trkpt>
      <trkpt lat="44.65559" lon="4.09551">
        <ele>930.7</ele>
        <time>2007-10-20T13:09:48Z</time>
      </trkpt>
      <trkpt lat="44.65578" lon="4.09607">
        <ele>922</ele>
        <time>2007-10-20T13:10:08Z</time>
      </trkpt>
      <trkpt lat="44.65641" lon="4.09769">
        <ele>911.5</ele>
        <time>2007-10-20T13:10:39Z</time>
      </trkpt>
      <trkpt lat="44.65637" lon="4.09772">
        <ele>905.2</ele>
        <time>2007-10-20T13:10:58Z</time>
      </trkpt>
      <trkpt lat="44.65629" lon="4.09776">
        <ele>891.8</ele>
        <time>2007-10-20T13:14:45Z</time>
      </trkpt>
      <trkpt lat="44.65647" lon="4.09812">
        <ele>887</ele>
        <time>2007-10-20T13:16:44Z</time>
      </trkpt>
      <trkpt lat="44.6565" lon="4.09822">
        <ele>889.4</ele>
        <time>2007-10-20T13:16:49Z</time>
      </trkpt>
      <trkpt lat="44.65656" lon="4.09846">
        <ele>886</ele>
        <time>2007-10-20T13:17:06Z</time>
      </trkpt>
      <trkpt lat="44.65675" lon="4.09872">
        <ele>886</ele>
        <time>2007-10-20T13:17:13Z</time>
      </trkpt>
      <trkpt lat="44.65678" lon="4.09876">
        <ele>886</ele>
        <time>2007-10-20T13:17:14Z</time>
      </trkpt>
      <trkpt lat="44.65682" lon="4.09905">
        <ele>881.7</ele>
        <time>2007-10-20T13:17:26Z</time>
      </trkpt>
      <trkpt lat="44.65687" lon="4.09913">
        <ele>880.7</ele>
        <time>2007-10-20T13:17:29Z</time>
      </trkpt>
      <trkpt lat="44.65725" lon="4.09972">
        <ele>869.2</ele>
        <time>2007-10-20T13:17:45Z</time>
      </trkpt>
      <trkpt lat="44.65733" lon="4.0998">
        <ele>864.8</ele>
        <time>2007-10-20T13:17:50Z</time>
      </trkpt>
      <trkpt lat="44.65744" lon="4.09982">
        <ele>854.3</ele>
        <time>2007-10-20T13:18:07Z</time>
      </trkpt>
      <trkpt lat="44.65758" lon="4.09989">
        <ele>850.9</ele>
        <time>2007-10-20T13:18:39Z</time>
      </trkpt>
      <trkpt lat="44.65768" lon="4.09974">
        <ele>841.8</ele>
        <time>2007-10-20T13:19:13Z</time>
      </trkpt>
      <trkpt lat="44.65813" lon="4.09969">
        <ele>826.9</ele>
        <time>2007-10-20T13:22:17Z</time>
      </trkpt>
      <trkpt lat="44.65816" lon="4.0997">
        <ele>827.8</ele>
        <time>2007-10-20T13:22:24Z</time>
      </trkpt>
      <trkpt lat="44.65842" lon="4.09931">
        <ele>818.7</ele>
        <time>2007-10-20T13:22:46Z</time>
      </trkpt>
      <trkpt lat="44.65877" lon="4.099">
        <ele>814.4</ele>
        <time>2007-10-20T13:22:54Z</time>
      </trkpt>
      <trkpt lat="44.65882" lon="4.09883">
        <ele>810.5</ele>
        <time>2007-10-20T13:22:59Z</time>
      </trkpt>
      <trkpt lat="44.659" lon="4.1006">
        <ele>796.6</ele>
        <time>2007-10-20T13:23:36Z</time>
      </trkpt>
      <trkpt lat="44.65869" lon="4.10088">
        <ele>788.9</ele>
        <time>2007-10-20T13:23:43Z</time>
      </trkpt>
      <trkpt lat="44.65863" lon="4.10098">
        <ele>785.1</ele>
        <time>2007-10-20T13:23:50Z</time>
      </trkpt>
      <trkpt lat="44.65873" lon="4.10129">
        <ele>772.6</ele>
        <time>2007-10-20T13:24:13Z</time>
      </trkpt>
      <trkpt lat="44.65872" lon="4.10131">
        <ele>760.1</ele>
        <time>2007-10-20T13:24:30Z</time>
      </trkpt>
      <trkpt lat="44.65919" lon="4.10229">
        <ele>757.2</ele>
        <time>2007-10-20T13:27:10Z</time>
      </trkpt>
      <trkpt lat="44.65924" lon="4.10249">
        <ele>750.9</ele>
        <time>2007-10-20T13:27:44Z</time>
      </trkpt>
      <trkpt lat="44.65938" lon="4.103">
        <ele>747.6</ele>
        <time>2007-10-20T13:27:55Z</time>
      </trkpt>
      <trkpt lat="44.65964" lon="4.10321">
        <ele>743.7</ele>
        <time>2007-10-20T13:28:04Z</time>
      </trkpt>
      <trkpt lat="44.65999" lon="4.10389">
        <ele>737.5</ele>
        <time>2007-10-20T13:28:24Z</time>
      </trkpt>
      <trkpt lat="44.66006" lon="4.10398">
        <ele>731.7</ele>
        <time>2007-10-20T13:28:36Z</time>
      </trkpt>
      <trkpt lat="44.66047" lon="4.10403">
        <ele>725.5</ele>
        <time>2007-10-20T13:28:52Z</time>
      </trkpt>
      <trkpt lat="44.66136" lon="4.10392">
        <ele>720.2</ele>
        <time>2007-10-20T13:29:23Z</time>
      </trkpt>
      <trkpt lat="44.66162" lon="4.10411">
        <ele>719.7</ele>
        <time>2007-10-20T13:29:29Z</time>
      </trkpt>
      <trkpt lat="44.66243" lon="4.10472">
        <ele>712.5</ele>
        <time>2007-10-20T13:29:55Z</time>
      </trkpt>
      <trkpt lat="44.66239" lon="4.10449">
        <ele>701.4</ele>
        <time>2007-10-20T13:33:45Z</time>
      </trkpt>
      <trkpt lat="44.66273" lon="4.10518">
        <ele>700</ele>
        <time>2007-10-20T13:33:57Z</time>
      </trkpt>
      <trkpt lat="44.66289" lon="4.10555">
        <ele>698.1</ele>
        <time>2007-10-20T13:34:03Z</time>
      </trkpt>
      <trkpt lat="44.66304" lon="4.10572">
        <ele>692.8</ele>
        <time>2007-10-20T13:34:08Z</time>
      </trkpt>
      <trkpt lat="44.66354" lon="4.10663">
        <ele>678.8</ele>
        <time>2007-10-20T13:34:26Z</time>
      </trkpt>
      <trkpt lat="44.66386" lon="4.10707">
        <ele>674.5</ele>
        <time>2007-10-20T13:34:42Z</time>
      </trkpt>
      <trkpt lat="44.66387" lon="4.10707">
        <ele>670.7</ele>
        <time>2007-10-20T13:34:45Z</time>
      </trkpt>
      <trkpt lat="44.66391" lon="4.107">
        <ele>663.9</ele>
        <time>2007-10-20T13:34:57Z</time>
      </trkpt>
      <trkpt lat="44.6639" lon="4.10693">
        <ele>659.1</ele>
        <time>2007-10-20T13:35:12Z</time>
      </trkpt>
      <trkpt lat="44.66392" lon="4.10686">
        <ele>659.6</ele>
        <time>2007-10-20T13:35:40Z</time>
      </trkpt>
      <trkpt lat="44.66387" lon="4.10632">
        <ele>659.1</ele>
        <time>2007-10-20T13:36:07Z</time>
      </trkpt>
      <trkpt lat="44.66518" lon="4.10771">
        <ele>649.5</ele>
        <time>2007-10-20T13:36:44Z</time>
      </trkpt>
      <trkpt lat="44.66524" lon="4.10793">
        <ele>641.8</ele>
        <time>2007-10-20T13:36:59Z</time>
      </trkpt>
      <trkpt lat="44.66533" lon="4.10793">
        <ele>637.5</ele>
        <time>2007-10-20T13:37:15Z</time>
      </trkpt>
      <trkpt lat="44.66547" lon="4.10788">
        <ele>636</ele>
        <time>2007-10-20T13:37:33Z</time>
      </trkpt>
      <trkpt lat="44.66549" lon="4.10785">
        <ele>636</ele>
        <time>2007-10-20T13:37:35Z</time>
      </trkpt>
      <trkpt lat="44.66558" lon="4.10739">
        <ele>626.9</ele>
        <time>2007-10-20T13:37:53Z</time>
      </trkpt>
      <trkpt lat="44.6657" lon="4.10734">
        <ele>613</ele>
        <time>2007-10-20T13:38:15Z</time>
      </trkpt>
      <trkpt lat="44.66589" lon="4.10734">
        <ele>603.8</ele>
        <time>2007-10-20T13:38:40Z</time>
      </trkpt>
      <trkpt lat="44.66596" lon="4.10733">
        <ele>599.5</ele>
        <time>2007-10-20T13:38:56Z</time>
      </trkpt>
      <trkpt lat="44.66608" lon="4.10732">
        <ele>591.8</ele>
        <time>2007-10-20T13:58:57Z</time>
      </trkpt>
      <trkpt lat="44.66606" lon="4.10729">
        <ele>593.8</ele>
        <time>2007-10-20T13:59:31Z</time>
      </trkpt>
      <trkpt lat="44.66616" lon="4.10731">
        <ele>594.7</ele>
        <time>2007-10-20T13:59:54Z</time>
      </trkpt>
      <trkpt lat="44.66684" lon="4.10758">
        <ele>598.1</ele>
        <time>2007-10-20T14:00:26Z</time>
      </trkpt>
      <trkpt lat="44.66708" lon="4.10738">
        <ele>601.4</ele>
        <time>2007-10-20T14:00:47Z</time>
      </trkpt>
      <trkpt lat="44.66718" lon="4.10737">
        <ele>601.4</ele>
        <time>2007-10-20T14:00:52Z</time>
      </trkpt>
      <trkpt lat="44.66728" lon="4.10686">
        <ele>604.3</ele>
        <time>2007-10-20T14:01:08Z</time>
      </trkpt>
      <trkpt lat="44.66743" lon="4.10611">
        <ele>609.1</ele>
        <time>2007-10-20T14:01:30Z</time>
      </trkpt>
      <trkpt lat="44.66766" lon="4.10543">
        <ele>613.9</ele>
        <time>2007-10-20T14:01:51Z</time>
      </trkpt>
      <trkpt lat="44.66778" lon="4.1046">
        <ele>617.8</ele>
        <time>2007-10-20T14:02:14Z</time>
      </trkpt>
      <trkpt lat="44.66788" lon="4.10376">
        <ele>623.6</ele>
        <time>2007-10-20T14:02:36Z</time>
      </trkpt>
      <trkpt lat="44.66793" lon="4.10276">
        <ele>626.4</ele>
        <time>2007-10-20T14:03:02Z</time>
      </trkpt>
      <trkpt lat="44.66824" lon="4.10198">
        <ele>630.3</ele>
        <time>2007-10-20T14:03:26Z</time>
      </trkpt>
      <trkpt lat="44.66837" lon="4.10125">
        <ele>631.2</ele>
        <time>2007-10-20T14:03:45Z</time>
      </trkpt>
      <trkpt lat="44.66845" lon="4.10076">
        <ele>634.1</ele>
        <time>2007-10-20T14:03:59Z</time>
      </trkpt>
      <trkpt lat="44.66875" lon="4.10053">
        <ele>638.9</ele>
        <time>2007-10-20T14:04:13Z</time>
      </trkpt>
      <trkpt lat="44.66908" lon="4.10001">
        <ele>643.7</ele>
        <time>2007-10-20T14:04:31Z</time>
      </trkpt>
      <trkpt lat="44.6698" lon="4.09889">
        <ele>650.5</ele>
        <time>2007-10-20T14:05:12Z</time>
      </trkpt>
      <trkpt lat="44.67023" lon="4.09868">
        <ele>653.8</ele>
        <time>2007-10-20T14:05:29Z</time>
      </trkpt>
      <trkpt lat="44.67073" lon="4.09836">
        <ele>658.2</ele>
        <time>2007-10-20T14:05:49Z</time>
      </trkpt>
      <trkpt lat="44.67058" lon="4.09688">
        <ele>660.6</ele>
        <time>2007-10-20T14:06:23Z</time>
      </trkpt>
      <trkpt lat="44.67064" lon="4.09613">
        <ele>664.4</ele>
        <time>2007-10-20T14:06:41Z</time>
      </trkpt>
      <trkpt lat="44.67098" lon="4.09577">
        <ele>671.6</ele>
        <time>2007-10-20T14:06:57Z</time>
      </trkpt>
      <trkpt lat="44.67142" lon="4.09588">
        <ele>675.5</ele>
        <time>2007-10-20T14:07:15Z</time>
      </trkpt>
      <trkpt lat="44.67196" lon="4.0958">
        <ele>679.8</ele>
        <time>2007-10-20T14:07:34Z</time>
      </trkpt>
      <trkpt lat="44.67229" lon="4.09609">
        <ele>683.2</ele>
        <time>2007-10-20T14:07:50Z</time>
      </trkpt>
      <trkpt lat="44.67279" lon="4.09645">
        <ele>687.5</ele>
        <time>2007-10-20T14:08:11Z</time>
      </trkpt>
      <trkpt lat="44.67338" lon="4.09683">
        <ele>692.8</ele>
        <time>2007-10-20T14:08:35Z</time>
      </trkpt>
      <trkpt lat="44.67384" lon="4.09712">
        <ele>697.6</ele>
        <time>2007-10-20T14:08:55Z</time>
      </trkpt>
      <trkpt lat="44.67431" lon="4.09743">
        <ele>701.9</ele>
        <time>2007-10-20T14:09:15Z</time>
      </trkpt>
      <trkpt lat="44.67479" lon="4.09773">
        <ele>705.7</ele>
        <time>2007-10-20T14:09:35Z</time>
      </trkpt>
      <trkpt lat="44.67534" lon="4.098">
        <ele>711</ele>
        <time>2007-10-20T14:09:58Z</time>
      </trkpt>
      <trkpt lat="44.67583" lon="4.09804">
        <ele>717.3</ele>
        <time>2007-10-20T14:10:15Z</time>
      </trkpt>
      <trkpt lat="44.67638" lon="4.09812">
        <ele>720.6</ele>
        <time>2007-10-20T14:10:36Z</time>
      </trkpt>
      <trkpt lat="44.67686" lon="4.09815">
        <ele>724.5</ele>
        <time>2007-10-20T14:10:54Z</time>
      </trkpt>
      <trkpt lat="44.67675" lon="4.09714">
        <ele>724</ele>
        <time>2007-10-20T14:11:22Z</time>
      </trkpt>
      <trkpt lat="44.67663" lon="4.09683">
        <ele>724</ele>
        <time>2007-10-20T14:12:06Z</time>
      </trkpt>
      <trkpt lat="44.67662" lon="4.09687">
        <ele>732.7</ele>
        <time>2007-10-20T14:22:07Z</time>
      </trkpt>
      <trkpt lat="44.67672" lon="4.09671">
        <ele>730.3</ele>
        <time>2007-10-20T14:22:44Z</time>
      </trkpt>
      <trkpt lat="44.67696" lon="4.09702">
        <ele>732.7</ele>
        <time>2007-10-20T14:23:37Z</time>
      </trkpt>
      <trkpt lat="44.67772" lon="4.09761">
        <ele>734.1</ele>
        <time>2007-10-20T14:24:12Z</time>
      </trkpt>
      <trkpt lat="44.67802" lon="4.0978">
        <ele>737.9</ele>
        <time>2007-10-20T14:24:28Z</time>
      </trkpt>
      <trkpt lat="44.67811" lon="4.09779">
        <ele>737</ele>
        <time>2007-10-20T14:24:32Z</time>
      </trkpt>
      <trkpt lat="44.67828" lon="4.09797">
        <ele>742.3</ele>
        <time>2007-10-20T14:25:01Z</time>
      </trkpt>
      <trkpt lat="44.67837" lon="4.09799">
        <ele>745.6</ele>
        <time>2007-10-20T14:25:13Z</time>
      </trkpt>
      <trkpt lat="44.67851" lon="4.09805">
        <ele>750.9</ele>
        <time>2007-10-20T14:25:30Z</time>
      </trkpt>
      <trkpt lat="44.67887" lon="4.09833">
        <ele>754.8</ele>
        <time>2007-10-20T14:26:06Z</time>
      </trkpt>
      <trkpt lat="44.67923" lon="4.09864">
        <ele>760.1</ele>
        <time>2007-10-20T14:26:44Z</time>
      </trkpt>
      <trkpt lat="44.67951" lon="4.0989">
        <ele>762.9</ele>
        <time>2007-10-20T14:27:18Z</time>
      </trkpt>
      <trkpt lat="44.67979" lon="4.09909">
        <ele>768.7</ele>
        <time>2007-10-20T14:27:41Z</time>
      </trkpt>
      <trkpt lat="44.68003" lon="4.09905">
        <ele>775.9</ele>
        <time>2007-10-20T14:28:06Z</time>
      </trkpt>
      <trkpt lat="44.6802" lon="4.0991">
        <ele>779.3</ele>
        <time>2007-10-20T14:28:22Z</time>
      </trkpt>
      <trkpt lat="44.68037" lon="4.09915">
        <ele>781.7</ele>
        <time>2007-10-20T14:28:38Z</time>
      </trkpt>
      <trkpt lat="44.68068" lon="4.09913">
        <ele>787.5</ele>
        <time>2007-10-20T14:29:16Z</time>
      </trkpt>
      <trkpt lat="44.68096" lon="4.09913">
        <ele>797.1</ele>
        <time>2007-10-20T14:29:51Z</time>
      </trkpt>
      <trkpt lat="44.68103" lon="4.09915">
        <ele>799</ele>
        <time>2007-10-20T14:29:59Z</time>
      </trkpt>
      <trkpt lat="44.68125" lon="4.09917">
        <ele>802.8</ele>
        <time>2007-10-20T14:30:20Z</time>
      </trkpt>
      <trkpt lat="44.68148" lon="4.09924">
        <ele>810</ele>
        <time>2007-10-20T14:30:49Z</time>
      </trkpt>
      <trkpt lat="44.68179" lon="4.09925">
        <ele>819.2</ele>
        <time>2007-10-20T14:31:23Z</time>
      </trkpt>
      <trkpt lat="44.68214" lon="4.0992">
        <ele>821.6</ele>
        <time>2007-10-20T14:31:59Z</time>
      </trkpt>
      <trkpt lat="44.68215" lon="4.09921">
        <ele>821.6</ele>
        <time>2007-10-20T14:32:00Z</time>
      </trkpt>
      <trkpt lat="44.68241" lon="4.09935">
        <ele>827.4</ele>
        <time>2007-10-20T14:32:22Z</time>
      </trkpt>
      <trkpt lat="44.68269" lon="4.09942">
        <ele>831.7</ele>
        <time>2007-10-20T14:32:44Z</time>
      </trkpt>
      <trkpt lat="44.68293" lon="4.09941">
        <ele>831.2</ele>
        <time>2007-10-20T14:32:58Z</time>
      </trkpt>
      <trkpt lat="44.68313" lon="4.09927">
        <ele>835</ele>
        <time>2007-10-20T14:33:18Z</time>
      </trkpt>
      <trkpt lat="44.68327" lon="4.09953">
        <ele>840.3</ele>
        <time>2007-10-20T14:33:59Z</time>
      </trkpt>
      <trkpt lat="44.68339" lon="4.09981">
        <ele>844.7</ele>
        <time>2007-10-20T14:34:34Z</time>
      </trkpt>
      <trkpt lat="44.68355" lon="4.10008">
        <ele>848</ele>
        <time>2007-10-20T14:35:05Z</time>
      </trkpt>
      <trkpt lat="44.68364" lon="4.10022">
        <ele>853.3</ele>
        <time>2007-10-20T14:35:22Z</time>
      </trkpt>
      <trkpt lat="44.6837" lon="4.10036">
        <ele>857.6</ele>
        <time>2007-10-20T14:35:52Z</time>
      </trkpt>
      <trkpt lat="44.68374" lon="4.10047">
        <ele>857.6</ele>
        <time>2007-10-20T14:35:58Z</time>
      </trkpt>
      <trkpt lat="44.68389" lon="4.10076">
        <ele>861</ele>
        <time>2007-10-20T14:36:12Z</time>
      </trkpt>
      <trkpt lat="44.68419" lon="4.10101">
        <ele>865.3</ele>
        <time>2007-10-20T14:36:41Z</time>
      </trkpt>
      <trkpt lat="44.68429" lon="4.10105">
        <ele>864.8</ele>
        <time>2007-10-20T14:36:58Z</time>
      </trkpt>
      <trkpt lat="44.68431" lon="4.10161">
        <ele>865.8</ele>
        <time>2007-10-20T14:37:45Z</time>
      </trkpt>
      <trkpt lat="44.6845" lon="4.10194">
        <ele>867.2</ele>
        <time>2007-10-20T14:38:20Z</time>
      </trkpt>
      <trkpt lat="44.68493" lon="4.10254">
        <ele>869.6</ele>
        <time>2007-10-20T14:39:51Z</time>
      </trkpt>
      <trkpt lat="44.68492" lon="4.10257">
        <ele>869.6</ele>
        <time>2007-10-20T14:39:53Z</time>
      </trkpt>
      <trkpt lat="44.6849" lon="4.10262">
        <ele>873.5</ele>
        <time>2007-10-20T14:39:57Z</time>
      </trkpt>
      <trkpt lat="44.68483" lon="4.10269">
        <ele>878.3</ele>
        <time>2007-10-20T14:40:07Z</time>
      </trkpt>
      <trkpt lat="44.6848" lon="4.10278">
        <ele>882.6</ele>
        <time>2007-10-20T14:40:14Z</time>
      </trkpt>
      <trkpt lat="44.68491" lon="4.10294">
        <ele>896.1</ele>
        <time>2007-10-20T14:40:34Z</time>
      </trkpt>
      <trkpt lat="44.68501" lon="4.10302">
        <ele>904.3</ele>
        <time>2007-10-20T14:40:49Z</time>
      </trkpt>
      <trkpt lat="44.68508" lon="4.1031">
        <ele>909.1</ele>
        <time>2007-10-20T14:41:02Z</time>
      </trkpt>
      <trkpt lat="44.68517" lon="4.10324">
        <ele>912.4</ele>
        <time>2007-10-20T14:41:20Z</time>
      </trkpt>
      <trkpt lat="44.68526" lon="4.10335">
        <ele>917.7</ele>
        <time>2007-10-20T14:41:39Z</time>
      </trkpt>
      <trkpt lat="44.68537" lon="4.10338">
        <ele>917.7</ele>
        <time>2007-10-20T14:42:07Z</time>
      </trkpt>
      <trkpt lat="44.68553" lon="4.10358">
        <ele>923</ele>
        <time>2007-10-20T14:42:45Z</time>
      </trkpt>
      <trkpt lat="44.68563" lon="4.10369">
        <ele>931.2</ele>
        <time>2007-10-20T14:43:06Z</time>
      </trkpt>
      <trkpt lat="44.68572" lon="4.10378">
        <ele>937.4</ele>
        <time>2007-10-20T14:43:25Z</time>
      </trkpt>
      <trkpt lat="44.68579" lon="4.10391">
        <ele>946.1</ele>
        <time>2007-10-20T14:43:43Z</time>
      </trkpt>
      <trkpt lat="44.68592" lon="4.10401">
        <ele>954.7</ele>
        <time>2007-10-20T14:44:06Z</time>
      </trkpt>
      <trkpt lat="44.68594" lon="4.10431">
        <ele>961.5</ele>
        <time>2007-10-20T14:44:47Z</time>
      </trkpt>
      <trkpt lat="44.68616" lon="4.10451">
        <ele>966.3</ele>
        <time>2007-10-20T14:45:46Z</time>
      </trkpt>
      <trkpt lat="44.68626" lon="4.1047">
        <ele>979.7</ele>
        <time>2007-10-20T14:46:07Z</time>
      </trkpt>
      <trkpt lat="44.68641" lon="4.10509">
        <ele>985</ele>
        <time>2007-10-20T14:46:48Z</time>
      </trkpt>
      <trkpt lat="44.68639" lon="4.10527">
        <ele>983.6</ele>
        <time>2007-10-20T14:47:10Z</time>
      </trkpt>
      <trkpt lat="44.68625" lon="4.10553">
        <ele>988.4</ele>
        <time>2007-10-20T14:47:44Z</time>
      </trkpt>
      <trkpt lat="44.68622" lon="4.10579">
        <ele>994.1</ele>
        <time>2007-10-20T14:48:19Z</time>
      </trkpt>
      <trkpt lat="44.68621" lon="4.10587">
        <ele>996.1</ele>
        <time>2007-10-20T14:48:33Z</time>
      </trkpt>
      <trkpt lat="44.68629" lon="4.10603">
        <ele>998.9</ele>
        <time>2007-10-20T14:49:11Z</time>
      </trkpt>
      <trkpt lat="44.6863" lon="4.10604">
        <ele>1002.3</ele>
        <time>2007-10-20T14:49:54Z</time>
      </trkpt>
      <trkpt lat="44.68631" lon="4.10604">
        <ele>995.6</ele>
        <time>2007-10-20T14:50:36Z</time>
      </trkpt>
      <trkpt lat="44.68632" lon="4.10603">
        <ele>1011.4</ele>
        <time>2007-10-20T14:51:52Z</time>
      </trkpt>
      <trkpt lat="44.68646" lon="4.10584">
        <ele>1005.7</ele>
        <time>2007-10-20T14:52:13Z</time>
      </trkpt>
      <trkpt lat="44.68661" lon="4.10567">
        <ele>1010.5</ele>
        <time>2007-10-20T14:52:34Z</time>
      </trkpt>
      <trkpt lat="44.68689" lon="4.10595">
        <ele>1014.3</ele>
        <time>2007-10-20T14:54:14Z</time>
      </trkpt>
      <trkpt lat="44.68712" lon="4.10604">
        <ele>1029.7</ele>
        <time>2007-10-20T14:55:07Z</time>
      </trkpt>
      <trkpt lat="44.68721" lon="4.10636">
        <ele>1033.1</ele>
        <time>2007-10-20T14:55:50Z</time>
      </trkpt>
      <trkpt lat="44.68754" lon="4.10691">
        <ele>1039.8</ele>
        <time>2007-10-20T14:57:20Z</time>
      </trkpt>
      <trkpt lat="44.6876" lon="4.10701">
        <ele>1043.2</ele>
        <time>2007-10-20T14:57:40Z</time>
      </trkpt>
      <trkpt lat="44.68769" lon="4.10726">
        <ele>1053.3</ele>
        <time>2007-10-20T14:58:17Z</time>
      </trkpt>
      <trkpt lat="44.68769" lon="4.10747">
        <ele>1058.5</ele>
        <time>2007-10-20T14:58:36Z</time>
      </trkpt>
      <trkpt lat="44.68789" lon="4.10782">
        <ele>1069.1</ele>
        <time>2007-10-20T14:59:21Z</time>
      </trkpt>
      <trkpt lat="44.68795" lon="4.10792">
        <ele>1075.9</ele>
        <time>2007-10-20T14:59:35Z</time>
      </trkpt>
      <trkpt lat="44.688" lon="4.10809">
        <ele>1083.5</ele>
        <time>2007-10-20T14:59:52Z</time>
      </trkpt>
      <trkpt lat="44.68792" lon="4.10829">
        <ele>1090.3</ele>
        <time>2007-10-20T15:00:32Z</time>
      </trkpt>
      <trkpt lat="44.6881" lon="4.10847">
        <ele>1096</ele>
        <time>2007-10-20T15:01:34Z</time>
      </trkpt>
      <trkpt lat="44.68807" lon="4.10873">
        <ele>1099.9</ele>
        <time>2007-10-20T15:02:02Z</time>
      </trkpt>
      <trkpt lat="44.68801" lon="4.10923">
        <ele>1105.7</ele>
        <time>2007-10-20T15:02:55Z</time>
      </trkpt>
      <trkpt lat="44.68801" lon="4.10942">
        <ele>1110</ele>
        <time>2007-10-20T15:03:12Z</time>
      </trkpt>
      <trkpt lat="44.68801" lon="4.10959">
        <ele>1114.3</ele>
        <time>2007-10-20T15:03:30Z</time>
      </trkpt>
      <trkpt lat="44.68801" lon="4.10975">
        <ele>1119.6</ele>
        <time>2007-10-20T15:03:47Z</time>
      </trkpt>
      <trkpt lat="44.68798" lon="4.10991">
        <ele>1127.3</ele>
        <time>2007-10-20T15:04:12Z</time>
      </trkpt>
      <trkpt lat="44.68792" lon="4.1101">
        <ele>1130.6</ele>
        <time>2007-10-20T15:04:27Z</time>
      </trkpt>
      <trkpt lat="44.68796" lon="4.1102">
        <ele>1135.5</ele>
        <time>2007-10-20T15:04:47Z</time>
      </trkpt>
      <trkpt lat="44.68806" lon="4.11037">
        <ele>1136.4</ele>
        <time>2007-10-20T15:05:19Z</time>
      </trkpt>
      <trkpt lat="44.68808" lon="4.11043">
        <ele>1139.8</ele>
        <time>2007-10-20T15:05:34Z</time>
      </trkpt>
      <trkpt lat="44.68803" lon="4.11057">
        <ele>1143.1</ele>
        <time>2007-10-20T15:05:50Z</time>
      </trkpt>
      <trkpt lat="44.68798" lon="4.11083">
        <ele>1154.2</ele>
        <time>2007-10-20T15:06:33Z</time>
      </trkpt>
      <trkpt lat="44.68792" lon="4.1111">
        <ele>1159.5</ele>
        <time>2007-10-20T15:07:07Z</time>
      </trkpt>
      <trkpt lat="44.68782" lon="4.11152">
        <ele>1166.2</ele>
        <time>2007-10-20T15:08:22Z</time>
      </trkpt>
      <trkpt lat="44.68779" lon="4.11166">
        <ele>1172.9</ele>
        <time>2007-10-20T15:08:46Z</time>
      </trkpt>
      <trkpt lat="44.68777" lon="4.11182">
        <ele>1176.3</ele>
        <time>2007-10-20T15:09:05Z</time>
      </trkpt>
      <trkpt lat="44.68779" lon="4.1119">
        <ele>1175.3</ele>
        <time>2007-10-20T15:09:24Z</time>
      </trkpt>
      <trkpt lat="44.68767" lon="4.11222">
        <ele>1182.1</ele>
        <time>2007-10-20T15:10:17Z</time>
      </trkpt>
      <trkpt lat="44.68757" lon="4.11271">
        <ele>1189.3</ele>
        <time>2007-10-20T15:11:13Z</time>
      </trkpt>
      <trkpt lat="44.6876" lon="4.1128">
        <ele>1198.4</ele>
        <time>2007-10-20T15:11:51Z</time>
      </trkpt>
      <trkpt lat="44.68744" lon="4.11325">
        <ele>1205.1</ele>
        <time>2007-10-20T15:12:55Z</time>
      </trkpt>
      <trkpt lat="44.68748" lon="4.11356">
        <ele>1215.2</ele>
        <time>2007-10-20T15:13:50Z</time>
      </trkpt>
      <trkpt lat="44.68749" lon="4.11368">
        <ele>1219.1</ele>
        <time>2007-10-20T15:14:07Z</time>
      </trkpt>
      <trkpt lat="44.68749" lon="4.114">
        <ele>1224.4</ele>
        <time>2007-10-20T15:14:39Z</time>
      </trkpt>
      <trkpt lat="44.68749" lon="4.11398">
        <ele>1230.1</ele>
        <time>2007-10-20T15:15:19Z</time>
      </trkpt>
      <trkpt lat="44.68733" lon="4.11423">
        <ele>1247.9</ele>
        <time>2007-10-20T15:30:14Z</time>
      </trkpt>
      <trkpt lat="44.68727" lon="4.11418">
        <ele>1247.4</ele>
        <time>2007-10-20T15:30:26Z</time>
      </trkpt>
      <trkpt lat="44.68711" lon="4.11409">
        <ele>1243.6</ele>
        <time>2007-10-20T15:31:07Z</time>
      </trkpt>
      <trkpt lat="44.68711" lon="4.1142">
        <ele>1242.2</ele>
        <time>2007-10-20T15:31:29Z</time>
      </trkpt>
      <trkpt lat="44.68776" lon="4.11417">
        <ele>1245.5</ele>
        <time>2007-10-20T15:32:17Z</time>
      </trkpt>
      <trkpt lat="44.68799" lon="4.11396">
        <ele>1250.3</ele>
        <time>2007-10-20T15:32:37Z</time>
      </trkpt>
      <trkpt lat="44.6882" lon="4.11372">
        <ele>1253.2</ele>
        <time>2007-10-20T15:32:55Z</time>
      </trkpt>
      <trkpt lat="44.68865" lon="4.11301">
        <ele>1258.5</ele>
        <time>2007-10-20T15:33:37Z</time>
      </trkpt>
      <trkpt lat="44.68898" lon="4.11241">
        <ele>1262.3</ele>
        <time>2007-10-20T15:34:15Z</time>
      </trkpt>
      <trkpt lat="44.68899" lon="4.11239">
        <ele>1262.3</ele>
        <time>2007-10-20T15:34:16Z</time>
      </trkpt>
      <trkpt lat="44.6892" lon="4.11227">
        <ele>1266.2</ele>
        <time>2007-10-20T15:34:31Z</time>
      </trkpt>
      <trkpt lat="44.68968" lon="4.11205">
        <ele>1270</ele>
        <time>2007-10-20T15:35:03Z</time>
      </trkpt>
      <trkpt lat="44.69025" lon="4.11195">
        <ele>1273.4</ele>
        <time>2007-10-20T15:35:40Z</time>
      </trkpt>
      <trkpt lat="44.69051" lon="4.11181">
        <ele>1277.2</ele>
        <time>2007-10-20T15:35:59Z</time>
      </trkpt>
      <trkpt lat="44.69103" lon="4.11155">
        <ele>1282.1</ele>
        <time>2007-10-20T15:36:35Z</time>
      </trkpt>
      <trkpt lat="44.69157" lon="4.11136">
        <ele>1286.4</ele>
        <time>2007-10-20T15:37:13Z</time>
      </trkpt>
      <trkpt lat="44.69166" lon="4.11133">
        <ele>1285.9</ele>
        <time>2007-10-20T15:37:25Z</time>
      </trkpt>
      <trkpt lat="44.69168" lon="4.11136">
        <ele>1284.9</ele>
        <time>2007-10-20T15:41:04Z</time>
      </trkpt>
      <trkpt lat="44.6914" lon="4.11228">
        <ele>1289.3</ele>
        <time>2007-10-20T15:41:41Z</time>
      </trkpt>
      <trkpt lat="44.69116" lon="4.1128">
        <ele>1288.3</ele>
        <time>2007-10-20T15:41:54Z</time>
      </trkpt>
      <trkpt lat="44.69097" lon="4.1138">
        <ele>1289.7</ele>
        <time>2007-10-20T15:42:11Z</time>
      </trkpt>
      <trkpt lat="44.69052" lon="4.11588">
        <ele>1293.6</ele>
        <time>2007-10-20T15:43:15Z</time>
      </trkpt>
      <trkpt lat="44.6905" lon="4.1162">
        <ele>1293.6</ele>
        <time>2007-10-20T15:43:37Z</time>
      </trkpt>
      <trkpt lat="44.69051" lon="4.11593">
        <ele>1294.6</ele>
        <time>2007-10-20T15:44:32Z</time>
      </trkpt>
      <trkpt lat="44.69051" lon="4.11597">
        <ele>1297.4</ele>
        <time>2007-10-20T15:45:05Z</time>
      </trkpt>
      <trkpt lat="44.69049" lon="4.11615">
        <ele>1296.5</ele>
        <time>2007-10-20T15:45:11Z</time>
      </trkpt>
      <trkpt lat="44.69001" lon="4.11835">
        <ele>1296</ele>
        <time>2007-10-20T15:45:48Z</time>
      </trkpt>
      <trkpt lat="44.69014" lon="4.12048">
        <ele>1288.3</ele>
        <time>2007-10-20T15:46:15Z</time>
      </trkpt>
      <trkpt lat="44.6903" lon="4.12167">
        <ele>1287.3</ele>
        <time>2007-10-20T15:46:32Z</time>
      </trkpt>
      <trkpt lat="44.69029" lon="4.12196">
        <ele>1287.8</ele>
        <time>2007-10-20T15:46:36Z</time>
      </trkpt>
      <trkpt lat="44.69025" lon="4.12248">
        <ele>1289.7</ele>
        <time>2007-10-20T15:46:47Z</time>
      </trkpt>
      <trkpt lat="44.6904" lon="4.12325">
        <ele>1293.1</ele>
        <time>2007-10-20T15:47:07Z</time>
      </trkpt>
      <trkpt lat="44.69054" lon="4.12404">
        <ele>1296.5</ele>
        <time>2007-10-20T15:47:27Z</time>
      </trkpt>
      <trkpt lat="44.69065" lon="4.12602">
        <ele>1300.3</ele>
        <time>2007-10-20T15:48:10Z</time>
      </trkpt>
      <trkpt lat="44.69097" lon="4.12659">
        <ele>1303.2</ele>
        <time>2007-10-20T15:48:31Z</time>
      </trkpt>
      <trkpt lat="44.69131" lon="4.12721">
        <ele>1307.5</ele>
        <time>2007-10-20T15:49:02Z</time>
      </trkpt>
      <trkpt lat="44.69134" lon="4.12813">
        <ele>1309</ele>
        <time>2007-10-20T15:49:30Z</time>
      </trkpt>
      <trkpt lat="44.69117" lon="4.12995">
        <ele>1307.5</ele>
        <time>2007-10-20T15:49:59Z</time>
      </trkpt>
      <trkpt lat="44.69115" lon="4.13032">
        <ele>1308</ele>
        <time>2007-10-20T15:50:27Z</time>
      </trkpt>
      <trkpt lat="44.69117" lon="4.13029">
        <ele>1308</ele>
        <time>2007-10-20T15:50:49Z</time>
      </trkpt>
      <trkpt lat="44.69133" lon="4.13056">
        <ele>1312.3</ele>
        <time>2007-10-20T15:51:45Z</time>
      </trkpt>
      <trkpt lat="44.6916" lon="4.13113">
        <ele>1317.1</ele>
        <time>2007-10-20T15:52:15Z</time>
      </trkpt>
      <trkpt lat="44.69184" lon="4.13134">
        <ele>1320.5</ele>
        <time>2007-10-20T15:52:33Z</time>
      </trkpt>
      <trkpt lat="44.6921" lon="4.13156">
        <ele>1324.8</ele>
        <time>2007-10-20T15:52:53Z</time>
      </trkpt>
      <trkpt lat="44.69239" lon="4.13178">
        <ele>1326.3</ele>
        <time>2007-10-20T15:53:11Z</time>
      </trkpt>
      <trkpt lat="44.693" lon="4.13187">
        <ele>1330.6</ele>
        <time>2007-10-20T15:53:44Z</time>
      </trkpt>
      <trkpt lat="44.69347" lon="4.13186">
        <ele>1335.9</ele>
        <time>2007-10-20T15:54:15Z</time>
      </trkpt>
      <trkpt lat="44.69369" lon="4.13186">
        <ele>1339.3</ele>
        <time>2007-10-20T15:54:30Z</time>
      </trkpt>
      <trkpt lat="44.69416" lon="4.13188">
        <ele>1344.1</ele>
        <time>2007-10-20T15:55:00Z</time>
      </trkpt>
      <trkpt lat="44.69439" lon="4.13201">
        <ele>1346.9</ele>
        <time>2007-10-20T15:55:22Z</time>
      </trkpt>
      <trkpt lat="44.69465" lon="4.13226">
        <ele>1350.3</ele>
        <time>2007-10-20T15:55:38Z</time>
      </trkpt>
      <trkpt lat="44.69501" lon="4.13368">
        <ele>1348.9</ele>
        <time>2007-10-20T15:56:19Z</time>
      </trkpt>
      <trkpt lat="44.69502" lon="4.13385">
        <ele>1348.4</ele>
        <time>2007-10-20T15:56:21Z</time>
      </trkpt>
      <trkpt lat="44.69536" lon="4.13532">
        <ele>1351.3</ele>
        <time>2007-10-20T15:56:50Z</time>
      </trkpt>
      <trkpt lat="44.69571" lon="4.13638">
        <ele>1348.9</ele>
        <time>2007-10-20T15:57:17Z</time>
      </trkpt>
      <trkpt lat="44.69577" lon="4.13681">
        <ele>1347.9</ele>
        <time>2007-10-20T15:57:23Z</time>
      </trkpt>
      <trkpt lat="44.69602" lon="4.13749">
        <ele>1346.9</ele>
        <time>2007-10-20T15:57:35Z</time>
      </trkpt>
      <trkpt lat="44.6969" lon="4.13984">
        <ele>1347.9</ele>
        <time>2007-10-20T15:58:29Z</time>
      </trkpt>
      <trkpt lat="44.69703" lon="4.14018">
        <ele>1347.4</ele>
        <time>2007-10-20T16:02:18Z</time>
      </trkpt>
      <trkpt lat="44.69704" lon="4.14024">
        <ele>1347.4</ele>
        <time>2007-10-20T16:02:20Z</time>
      </trkpt>
      <trkpt lat="44.69739" lon="4.14091">
        <ele>1341.2</ele>
        <time>2007-10-20T16:03:51Z</time>
      </trkpt>
      <trkpt lat="44.69762" lon="4.14149">
        <ele>1335.4</ele>
        <time>2007-10-20T16:03:58Z</time>
      </trkpt>
      <trkpt lat="44.69785" lon="4.14212">
        <ele>1330.6</ele>
        <time>2007-10-20T16:04:05Z</time>
      </trkpt>
      <trkpt lat="44.69793" lon="4.14285">
        <ele>1326.8</ele>
        <time>2007-10-20T16:04:13Z</time>
      </trkpt>
      <trkpt lat="44.69821" lon="4.14323">
        <ele>1320</ele>
        <time>2007-10-20T16:04:21Z</time>
      </trkpt>
      <trkpt lat="44.69858" lon="4.14374">
        <ele>1311.9</ele>
        <time>2007-10-20T16:04:28Z</time>
      </trkpt>
      <trkpt lat="44.69913" lon="4.14492">
        <ele>1297.9</ele>
        <time>2007-10-20T16:04:40Z</time>
      </trkpt>
      <trkpt lat="44.69937" lon="4.1453">
        <ele>1293.1</ele>
        <time>2007-10-20T16:04:44Z</time>
      </trkpt>
      <trkpt lat="44.69961" lon="4.14583">
        <ele>1287.3</ele>
        <time>2007-10-20T16:04:49Z</time>
      </trkpt>
      <trkpt lat="44.69977" lon="4.14616">
        <ele>1282.1</ele>
        <time>2007-10-20T16:04:53Z</time>
      </trkpt>
      <trkpt lat="44.69992" lon="4.14649">
        <ele>1277.7</ele>
        <time>2007-10-20T16:04:57Z</time>
      </trkpt>
      <trkpt lat="44.70016" lon="4.14703">
        <ele>1275.8</ele>
        <time>2007-10-20T16:05:23Z</time>
      </trkpt>
      <trkpt lat="44.70021" lon="4.14722">
        <ele>1273.9</ele>
        <time>2007-10-20T16:05:26Z</time>
      </trkpt>
      <trkpt lat="44.70025" lon="4.14755">
        <ele>1271.5</ele>
        <time>2007-10-20T16:06:07Z</time>
      </trkpt>
      <trkpt lat="44.70043" lon="4.14819">
        <ele>1261.9</ele>
        <time>2007-10-20T16:06:16Z</time>
      </trkpt>
      <trkpt lat="44.70051" lon="4.14842">
        <ele>1258.5</ele>
        <time>2007-10-20T16:06:19Z</time>
      </trkpt>
      <trkpt lat="44.70078" lon="4.14883">
        <ele>1250.3</ele>
        <time>2007-10-20T16:06:26Z</time>
      </trkpt>
      <trkpt lat="44.70097" lon="4.14913">
        <ele>1244.6</ele>
        <time>2007-10-20T16:06:31Z</time>
      </trkpt>
      <trkpt lat="44.70103" lon="4.1493">
        <ele>1241.2</ele>
        <time>2007-10-20T16:06:35Z</time>
      </trkpt>
      <trkpt lat="44.70114" lon="4.14984">
        <ele>1224.4</ele>
        <time>2007-10-20T16:06:49Z</time>
      </trkpt>
      <trkpt lat="44.70128" lon="4.1503">
        <ele>1210.4</ele>
        <time>2007-10-20T16:07:00Z</time>
      </trkpt>
      <trkpt lat="44.70133" lon="4.15079">
        <ele>1201.8</ele>
        <time>2007-10-20T16:07:10Z</time>
      </trkpt>
      <trkpt lat="44.70122" lon="4.1511">
        <ele>1196.5</ele>
        <time>2007-10-20T16:07:16Z</time>
      </trkpt>
      <trkpt lat="44.70116" lon="4.15155">
        <ele>1190.7</ele>
        <time>2007-10-20T16:07:22Z</time>
      </trkpt>
      <trkpt lat="44.70113" lon="4.15207">
        <ele>1187.4</ele>
        <time>2007-10-20T16:07:34Z</time>
      </trkpt>
      <trkpt lat="44.70112" lon="4.15208">
        <ele>1186.9</ele>
        <time>2007-10-20T16:07:40Z</time>
      </trkpt>
      <trkpt lat="44.70091" lon="4.15237">
        <ele>1184</ele>
        <time>2007-10-20T16:07:51Z</time>
      </trkpt>
      <trkpt lat="44.70072" lon="4.15264">
        <ele>1176.3</ele>
        <time>2007-10-20T16:08:01Z</time>
      </trkpt>
      <trkpt lat="44.70043" lon="4.15343">
        <ele>1162.9</ele>
        <time>2007-10-20T16:08:17Z</time>
      </trkpt>
      <trkpt lat="44.70025" lon="4.15405">
        <ele>1157.1</ele>
        <time>2007-10-20T16:08:34Z</time>
      </trkpt>
      <trkpt lat="44.70019" lon="4.15433">
        <ele>1150.4</ele>
        <time>2007-10-20T16:09:34Z</time>
      </trkpt>
      <trkpt lat="44.70001" lon="4.15496">
        <ele>1141.2</ele>
        <time>2007-10-20T16:09:47Z</time>
      </trkpt>
      <trkpt lat="44.70004" lon="4.15533">
        <ele>1136.4</ele>
        <time>2007-10-20T16:09:54Z</time>
      </trkpt>
      <trkpt lat="44.7001" lon="4.15581">
        <ele>1128.2</ele>
        <time>2007-10-20T16:10:04Z</time>
      </trkpt>
      <trkpt lat="44.70023" lon="4.15624">
        <ele>1123</ele>
        <time>2007-10-20T16:10:14Z</time>
      </trkpt>
      <trkpt lat="44.70016" lon="4.15639">
        <ele>1117.7</ele>
        <time>2007-10-20T16:10:19Z</time>
      </trkpt>
      <trkpt lat="44.70008" lon="4.15689">
        <ele>1109.5</ele>
        <time>2007-10-20T16:10:28Z</time>
      </trkpt>
      <trkpt lat="44.70006" lon="4.157">
        <ele>1107.1</ele>
        <time>2007-10-20T16:10:30Z</time>
      </trkpt>
      <trkpt lat="44.69992" lon="4.15738">
        <ele>1103.7</ele>
        <time>2007-10-20T16:10:36Z</time>
      </trkpt>
      <trkpt lat="44.69969" lon="4.15806">
        <ele>1099.4</ele>
        <time>2007-10-20T16:10:48Z</time>
      </trkpt>
      <trkpt lat="44.69959" lon="4.1587">
        <ele>1094.6</ele>
        <time>2007-10-20T16:11:09Z</time>
      </trkpt>
      <trkpt lat="44.69958" lon="4.1587">
        <ele>1095.6</ele>
        <time>2007-10-20T16:11:39Z</time>
      </trkpt>
      <trkpt lat="44.69958" lon="4.15907">
        <ele>1087.9</ele>
        <time>2007-10-20T16:11:48Z</time>
      </trkpt>
      <trkpt lat="44.69956" lon="4.1594">
        <ele>1083.1</ele>
        <time>2007-10-20T16:11:54Z</time>
      </trkpt>
      <trkpt lat="44.69958" lon="4.1598">
        <ele>1079.2</ele>
        <time>2007-10-20T16:12:00Z</time>
      </trkpt>
      <trkpt lat="44.69949" lon="4.16034">
        <ele>1074.9</ele>
        <time>2007-10-20T16:12:09Z</time>
      </trkpt>
      <trkpt lat="44.69954" lon="4.16071">
        <ele>1068.6</ele>
        <time>2007-10-20T16:12:18Z</time>
      </trkpt>
      <trkpt lat="44.69961" lon="4.16091">
        <ele>1064.8</ele>
        <time>2007-10-20T16:12:23Z</time>
      </trkpt>
      <trkpt lat="44.69965" lon="4.16101">
        <ele>1062.4</ele>
        <time>2007-10-20T16:12:25Z</time>
      </trkpt>
      <trkpt lat="44.69958" lon="4.16126">
        <ele>1056.1</ele>
        <time>2007-10-20T16:12:32Z</time>
      </trkpt>
      <trkpt lat="44.69958" lon="4.16177">
        <ele>1051.8</ele>
        <time>2007-10-20T16:12:39Z</time>
      </trkpt>
      <trkpt lat="44.69949" lon="4.16208">
        <ele>1047.5</ele>
        <time>2007-10-20T16:13:13Z</time>
      </trkpt>
      <trkpt lat="44.69906" lon="4.16305">
        <ele>1048.9</ele>
        <time>2007-10-20T16:15:13Z</time>
      </trkpt>
      <trkpt lat="44.69894" lon="4.16341">
        <ele>1053.7</ele>
        <time>2007-10-20T16:15:40Z</time>
      </trkpt>
      <trkpt lat="44.6986" lon="4.16413">
        <ele>1049.9</ele>
        <time>2007-10-20T16:16:03Z</time>
      </trkpt>
      <trkpt lat="44.69827" lon="4.16489">
        <ele>1045.6</ele>
        <time>2007-10-20T16:16:21Z</time>
      </trkpt>
      <trkpt lat="44.69822" lon="4.16535">
        <ele>1042.2</ele>
        <time>2007-10-20T16:16:29Z</time>
      </trkpt>
      <trkpt lat="44.69818" lon="4.16581">
        <ele>1044.6</ele>
        <time>2007-10-20T16:17:00Z</time>
      </trkpt>
      <trkpt lat="44.69811" lon="4.16597">
        <ele>1044.6</ele>
        <time>2007-10-20T16:17:11Z</time>
      </trkpt>
      <trkpt lat="44.69782" lon="4.16661">
        <ele>1050.9</ele>
        <time>2007-10-20T16:17:38Z</time>
      </trkpt>
      <trkpt lat="44.69764" lon="4.16692">
        <ele>1054.2</ele>
        <time>2007-10-20T16:17:55Z</time>
      </trkpt>
      <trkpt lat="44.69746" lon="4.16784">
        <ele>1056.1</ele>
        <time>2007-10-20T16:18:37Z</time>
      </trkpt>
      <trkpt lat="44.69741" lon="4.16848">
        <ele>1054.7</ele>
        <time>2007-10-20T16:19:06Z</time>
      </trkpt>
      <trkpt lat="44.69704" lon="4.16958">
        <ele>1051.3</ele>
        <time>2007-10-20T16:20:18Z</time>
      </trkpt>
      <trkpt lat="44.69644" lon="4.17072">
        <ele>1048.9</ele>
        <time>2007-10-20T16:20:48Z</time>
      </trkpt>
      <trkpt lat="44.69631" lon="4.17116">
        <ele>1050.4</ele>
        <time>2007-10-20T16:22:16Z</time>
      </trkpt>
      <trkpt lat="44.69633" lon="4.1715">
        <ele>1051.8</ele>
        <time>2007-10-20T16:22:39Z</time>
      </trkpt>
      <trkpt lat="44.69634" lon="4.17175">
        <ele>1048.5</ele>
        <time>2007-10-20T16:23:18Z</time>
      </trkpt>
      <trkpt lat="44.69633" lon="4.17185">
        <ele>1048</ele>
        <time>2007-10-20T16:23:24Z</time>
      </trkpt>
      <trkpt lat="44.69634" lon="4.17198">
        <ele>1047.5</ele>
        <time>2007-10-20T16:23:26Z</time>
      </trkpt>
      <trkpt lat="44.69641" lon="4.17301">
        <ele>1041.2</ele>
        <time>2007-10-20T16:23:38Z</time>
      </trkpt>
      <trkpt lat="44.69634" lon="4.17366">
        <ele>1037.9</ele>
        <time>2007-10-20T16:23:47Z</time>
      </trkpt>
      <trkpt lat="44.6963" lon="4.17386">
        <ele>1037.4</ele>
        <time>2007-10-20T16:23:50Z</time>
      </trkpt>
      <trkpt lat="44.69595" lon="4.17482">
        <ele>1028.3</ele>
        <time>2007-10-20T16:24:03Z</time>
      </trkpt>
      <trkpt lat="44.69588" lon="4.17513">
        <ele>1023.5</ele>
        <time>2007-10-20T16:24:07Z</time>
      </trkpt>
      <trkpt lat="44.69579" lon="4.17568">
        <ele>1019.1</ele>
        <time>2007-10-20T16:24:14Z</time>
      </trkpt>
      <trkpt lat="44.69572" lon="4.17662">
        <ele>1014.3</ele>
        <time>2007-10-20T16:24:25Z</time>
      </trkpt>
      <trkpt lat="44.69567" lon="4.17723">
        <ele>1012.9</ele>
        <time>2007-10-20T16:24:32Z</time>
      </trkpt>
      <trkpt lat="44.69572" lon="4.17817">
        <ele>1009.5</ele>
        <time>2007-10-20T16:24:43Z</time>
      </trkpt>
      <trkpt lat="44.69545" lon="4.17847">
        <ele>1002.8</ele>
        <time>2007-10-20T16:24:51Z</time>
      </trkpt>
      <trkpt lat="44.69508" lon="4.1789">
        <ele>997.5</ele>
        <time>2007-10-20T16:25:00Z</time>
      </trkpt>
      <trkpt lat="44.69495" lon="4.17914">
        <ele>996.1</ele>
        <time>2007-10-20T16:25:04Z</time>
      </trkpt>
      <trkpt lat="44.69486" lon="4.17931">
        <ele>993.2</ele>
        <time>2007-10-20T16:25:08Z</time>
      </trkpt>
      <trkpt lat="44.69467" lon="4.18004">
        <ele>989.8</ele>
        <time>2007-10-20T16:25:18Z</time>
      </trkpt>
      <trkpt lat="44.69429" lon="4.18218">
        <ele>981.2</ele>
        <time>2007-10-20T16:25:45Z</time>
      </trkpt>
      <trkpt lat="44.6941" lon="4.18257">
        <ele>977.3</ele>
        <time>2007-10-20T16:25:50Z</time>
      </trkpt>
      <trkpt lat="44.69397" lon="4.18284">
        <ele>974.4</ele>
        <time>2007-10-20T16:25:55Z</time>
      </trkpt>
      <trkpt lat="44.69377" lon="4.18312">
        <ele>970.6</ele>
        <time>2007-10-20T16:26:00Z</time>
      </trkpt>
      <trkpt lat="44.69358" lon="4.18336">
        <ele>967.7</ele>
        <time>2007-10-20T16:26:04Z</time>
      </trkpt>
      <trkpt lat="44.69328" lon="4.1837">
        <ele>965.3</ele>
        <time>2007-10-20T16:26:09Z</time>
      </trkpt>
      <trkpt lat="44.69291" lon="4.18506">
        <ele>961.9</ele>
        <time>2007-10-20T16:26:24Z</time>
      </trkpt>
      <trkpt lat="44.69292" lon="4.18523">
        <ele>961.9</ele>
        <time>2007-10-20T16:26:26Z</time>
      </trkpt>
      <trkpt lat="44.69291" lon="4.18641">
        <ele>960</ele>
        <time>2007-10-20T16:26:40Z</time>
      </trkpt>
      <trkpt lat="44.69284" lon="4.18776">
        <ele>955.7</ele>
        <time>2007-10-20T16:27:04Z</time>
      </trkpt>
      <trkpt lat="44.69283" lon="4.1883">
        <ele>954.2</ele>
        <time>2007-10-20T16:27:12Z</time>
      </trkpt>
      <trkpt lat="44.69269" lon="4.18899">
        <ele>950.9</ele>
        <time>2007-10-20T16:27:24Z</time>
      </trkpt>
      <trkpt lat="44.69262" lon="4.18914">
        <ele>947</ele>
        <time>2007-10-20T16:27:33Z</time>
      </trkpt>
      <trkpt lat="44.69264" lon="4.18914">
        <ele>948</ele>
        <time>2007-10-20T16:28:58Z</time>
      </trkpt>
      <trkpt lat="44.6924" lon="4.18955">
        <ele>943.2</ele>
        <time>2007-10-20T16:30:51Z</time>
      </trkpt>
      <trkpt lat="44.69223" lon="4.18981">
        <ele>936.9</ele>
        <time>2007-10-20T16:30:58Z</time>
      </trkpt>
      <trkpt lat="44.69193" lon="4.19035">
        <ele>928.8</ele>
        <time>2007-10-20T16:31:09Z</time>
      </trkpt>
      <trkpt lat="44.69157" lon="4.1911">
        <ele>918.2</ele>
        <time>2007-10-20T16:31:23Z</time>
      </trkpt>
      <trkpt lat="44.69137" lon="4.19149">
        <ele>911.9</ele>
        <time>2007-10-20T16:31:30Z</time>
      </trkpt>
      <trkpt lat="44.69143" lon="4.19162">
        <ele>908.6</ele>
        <time>2007-10-20T16:31:37Z</time>
      </trkpt>
      <trkpt lat="44.69146" lon="4.19161">
        <ele>905.2</ele>
        <time>2007-10-20T16:32:42Z</time>
      </trkpt>
      <trkpt lat="44.69146" lon="4.19162">
        <ele>905.7</ele>
        <time>2007-10-20T16:32:48Z</time>
      </trkpt>
      <trkpt lat="44.69185" lon="4.19137">
        <ele>901.4</ele>
        <time>2007-10-20T16:32:59Z</time>
      </trkpt>
      <trkpt lat="44.69238" lon="4.19095">
        <ele>897.5</ele>
        <time>2007-10-20T16:33:10Z</time>
      </trkpt>
      <trkpt lat="44.6937" lon="4.19033">
        <ele>894.2</ele>
        <time>2007-10-20T16:33:41Z</time>
      </trkpt>
      <trkpt lat="44.69375" lon="4.19036">
        <ele>894.2</ele>
        <time>2007-10-20T16:33:42Z</time>
      </trkpt>
      <trkpt lat="44.69389" lon="4.19038">
        <ele>893.7</ele>
        <time>2007-10-20T16:34:09Z</time>
      </trkpt>
      <trkpt lat="44.69413" lon="4.19044">
        <ele>894.2</ele>
        <time>2007-10-20T16:34:29Z</time>
      </trkpt>
      <trkpt lat="44.69487" lon="4.19046">
        <ele>889.8</ele>
        <time>2007-10-20T16:34:43Z</time>
      </trkpt>
      <trkpt lat="44.69559" lon="4.19074">
        <ele>881.2</ele>
        <time>2007-10-20T16:34:54Z</time>
      </trkpt>
      <trkpt lat="44.6961" lon="4.19091">
        <ele>870.1</ele>
        <time>2007-10-20T16:35:01Z</time>
      </trkpt>
      <trkpt lat="44.69628" lon="4.19101">
        <ele>866.3</ele>
        <time>2007-10-20T16:35:04Z</time>
      </trkpt>
      <trkpt lat="44.69638" lon="4.1911">
        <ele>864.4</ele>
        <time>2007-10-20T16:35:06Z</time>
      </trkpt>
      <trkpt lat="44.69674" lon="4.19139">
        <ele>860.5</ele>
        <time>2007-10-20T16:35:14Z</time>
      </trkpt>
      <trkpt lat="44.69674" lon="4.19144">
        <ele>859.1</ele>
        <time>2007-10-20T16:35:21Z</time>
      </trkpt>
      <trkpt lat="44.69679" lon="4.1918">
        <ele>852.8</ele>
        <time>2007-10-20T16:35:27Z</time>
      </trkpt>
      <trkpt lat="44.69683" lon="4.19285">
        <ele>839.8</ele>
        <time>2007-10-20T16:35:39Z</time>
      </trkpt>
      <trkpt lat="44.69671" lon="4.1936">
        <ele>832.6</ele>
        <time>2007-10-20T16:35:48Z</time>
      </trkpt>
      <trkpt lat="44.69667" lon="4.19388">
        <ele>831.2</ele>
        <time>2007-10-20T16:35:51Z</time>
      </trkpt>
      <trkpt lat="44.6966" lon="4.19413">
        <ele>826.4</ele>
        <time>2007-10-20T16:35:54Z</time>
      </trkpt>
      <trkpt lat="44.69652" lon="4.19545">
        <ele>817.7</ele>
        <time>2007-10-20T16:36:08Z</time>
      </trkpt>
      <trkpt lat="44.69641" lon="4.19676">
        <ele>812.5</ele>
        <time>2007-10-20T16:36:21Z</time>
      </trkpt>
      <trkpt lat="44.69607" lon="4.19822">
        <ele>806.7</ele>
        <time>2007-10-20T16:36:37Z</time>
      </trkpt>
      <trkpt lat="44.69602" lon="4.19841">
        <ele>805.2</ele>
        <time>2007-10-20T16:36:39Z</time>
      </trkpt>
      <trkpt lat="44.69582" lon="4.19988">
        <ele>800.4</ele>
        <time>2007-10-20T16:36:54Z</time>
      </trkpt>
      <trkpt lat="44.69576" lon="4.20034">
        <ele>800.9</ele>
        <time>2007-10-20T16:37:01Z</time>
      </trkpt>
      <trkpt lat="44.69531" lon="4.20279">
        <ele>797.1</ele>
        <time>2007-10-20T16:37:38Z</time>
      </trkpt>
      <trkpt lat="44.69531" lon="4.20291">
        <ele>797.1</ele>
        <time>2007-10-20T16:37:48Z</time>
      </trkpt>
      <trkpt lat="44.69526" lon="4.2037">
        <ele>793.2</ele>
        <time>2007-10-20T16:38:05Z</time>
      </trkpt>
      <trkpt lat="44.69517" lon="4.20475">
        <ele>795.1</ele>
        <time>2007-10-20T16:38:19Z</time>
      </trkpt>
      <trkpt lat="44.69514" lon="4.20496">
        <ele>790.8</ele>
        <time>2007-10-20T16:38:36Z</time>
      </trkpt>
      <trkpt lat="44.69511" lon="4.20579">
        <ele>788.9</ele>
        <time>2007-10-20T16:38:46Z</time>
      </trkpt>
      <trkpt lat="44.69498" lon="4.20682">
        <ele>785.5</ele>
        <time>2007-10-20T16:39:09Z</time>
      </trkpt>
      <trkpt lat="44.69499" lon="4.20725">
        <ele>788.9</ele>
        <time>2007-10-20T16:39:46Z</time>
      </trkpt>
      <trkpt lat="44.6951" lon="4.20709">
        <ele>792.7</ele>
        <time>2007-10-20T16:40:08Z</time>
      </trkpt>
      <trkpt lat="44.69518" lon="4.20733">
        <ele>798.5</ele>
        <time>2007-10-20T16:40:41Z</time>
      </trkpt>
      <trkpt lat="44.69531" lon="4.20791">
        <ele>809.1</ele>
        <time>2007-10-20T16:41:36Z</time>
      </trkpt>
      <trkpt lat="44.69535" lon="4.20821">
        <ele>817.3</ele>
        <time>2007-10-20T16:42:08Z</time>
      </trkpt>
      <trkpt lat="44.69534" lon="4.20855">
        <ele>824.5</ele>
        <time>2007-10-20T16:42:44Z</time>
      </trkpt>
      <trkpt lat="44.69534" lon="4.20878">
        <ele>836</ele>
        <time>2007-10-20T16:43:17Z</time>
      </trkpt>
      <trkpt lat="44.69538" lon="4.20899">
        <ele>837.4</ele>
        <time>2007-10-20T16:44:12Z</time>
      </trkpt>
      <trkpt lat="44.69525" lon="4.21017">
        <ele>842.3</ele>
        <time>2007-10-20T16:44:45Z</time>
      </trkpt>
      <trkpt lat="44.69529" lon="4.21023">
        <ele>841.3</ele>
        <time>2007-10-20T16:45:03Z</time>
      </trkpt>
      <trkpt lat="44.69545" lon="4.21042">
        <ele>835</ele>
        <time>2007-10-20T16:45:52Z</time>
      </trkpt>
      <trkpt lat="44.69567" lon="4.21072">
        <ele>831.7</ele>
        <time>2007-10-20T16:46:00Z</time>
      </trkpt>
      <trkpt lat="44.6966" lon="4.21103">
        <ele>829.3</ele>
        <time>2007-10-20T16:46:16Z</time>
      </trkpt>
      <trkpt lat="44.69687" lon="4.21124">
        <ele>825.9</ele>
        <time>2007-10-20T16:46:22Z</time>
      </trkpt>
      <trkpt lat="44.69817" lon="4.21224">
        <ele>819.7</ele>
        <time>2007-10-20T16:46:43Z</time>
      </trkpt>
      <trkpt lat="44.69879" lon="4.21289">
        <ele>808.1</ele>
        <time>2007-10-20T16:47:02Z</time>
      </trkpt>
      <trkpt lat="44.69877" lon="4.21283">
        <ele>770.6</ele>
        <time>2007-10-20T16:47:33Z</time>
      </trkpt>
      <trkpt lat="44.69857" lon="4.21258">
        <ele>770.2</ele>
        <time>2007-10-20T16:48:19Z</time>
      </trkpt>
      <trkpt lat="44.69856" lon="4.21259">
        <ele>770.2</ele>
        <time>2007-10-20T16:48:53Z</time>
      </trkpt>
      <trkpt lat="44.69923" lon="4.21327">
        <ele>766.8</ele>
        <time>2007-10-20T16:49:06Z</time>
      </trkpt>
      <trkpt lat="44.69946" lon="4.21396">
        <ele>765.3</ele>
        <time>2007-10-20T16:49:13Z</time>
      </trkpt>
      <trkpt lat="44.69949" lon="4.21501">
        <ele>755.7</ele>
        <time>2007-10-20T16:50:09Z</time>
      </trkpt>
      <trkpt lat="44.69949" lon="4.21508">
        <ele>744.2</ele>
        <time>2007-10-20T16:52:04Z</time>
      </trkpt>
      <trkpt lat="44.6995" lon="4.21505">
        <ele>747.1</ele>
        <time>2007-10-20T16:54:59Z</time>
      </trkpt>
      <trkpt lat="44.69949" lon="4.21503">
        <ele>736</ele>
        <time>2007-10-20T16:55:52Z</time>
      </trkpt>
      <trkpt lat="44.69951" lon="4.21502">
        <ele>746.6</ele>
        <time>2007-10-20T16:58:14Z</time>
      </trkpt>
      <trkpt lat="44.69952" lon="4.21497">
        <ele>725</ele>
        <time>2007-10-20T17:00:35Z</time>
      </trkpt>
      <trkpt lat="44.69944" lon="4.21528">
        <ele>737.9</ele>
        <time>2007-10-20T17:01:30Z</time>
      </trkpt>
      <trkpt lat="44.69908" lon="4.21637">
        <ele>736.5</ele>
        <time>2007-10-20T17:02:23Z</time>
      </trkpt>
      <trkpt lat="44.69881" lon="4.21728">
        <ele>740.4</ele>
        <time>2007-10-20T17:03:02Z</time>
      </trkpt>
      <trkpt lat="44.69844" lon="4.21747">
        <ele>744.7</ele>
        <time>2007-10-20T17:03:33Z</time>
      </trkpt>
      <trkpt lat="44.69899" lon="4.21762">
        <ele>744.2</ele>
        <time>2007-10-20T17:04:12Z</time>
      </trkpt>
      <trkpt lat="44.69867" lon="4.21826">
        <ele>744.7</ele>
        <time>2007-10-20T17:04:30Z</time>
      </trkpt>
      <trkpt lat="44.6977" lon="4.21935">
        <ele>742.3</ele>
        <time>2007-10-20T17:04:57Z</time>
      </trkpt>
      <trkpt lat="44.6961" lon="4.22096">
        <ele>746.6</ele>
        <time>2007-10-20T17:05:39Z</time>
      </trkpt>
      <trkpt lat="44.69465" lon="4.22164">
        <ele>755.7</ele>
        <time>2007-10-20T17:06:14Z</time>
      </trkpt>
      <trkpt lat="44.69432" lon="4.22149">
        <ele>760.1</ele>
        <time>2007-10-20T17:06:31Z</time>
      </trkpt>
      <trkpt lat="44.6936" lon="4.22103">
        <ele>766.8</ele>
        <time>2007-10-20T17:07:09Z</time>
      </trkpt>
      <trkpt lat="44.69335" lon="4.22077">
        <ele>767.8</ele>
        <time>2007-10-20T17:07:22Z</time>
      </trkpt>
      <trkpt lat="44.69285" lon="4.22089">
        <ele>766.8</ele>
        <time>2007-10-20T17:07:36Z</time>
      </trkpt>
      <trkpt lat="44.69235" lon="4.22274">
        <ele>761</ele>
        <time>2007-10-20T17:07:57Z</time>
      </trkpt>
      <trkpt lat="44.69275" lon="4.22433">
        <ele>714.8320313</ele>
      </trkpt>
      <trkpt lat="44.69288" lon="4.22394">
        <ele>716.8554688</ele>
      </trkpt>
      <trkpt lat="44.6937" lon="4.2241">
        <ele>705.8984375</ele>
      </trkpt>
      <trkpt lat="44.69414" lon="4.2241">
        <ele>700.6640625</ele>
      </trkpt>
      <trkpt lat="44.69452" lon="4.2241">
        <ele>695.609375</ele>
      </trkpt>
      <trkpt lat="44.69496" lon="4.2241">
        <ele>688.4765625</ele>
      </trkpt>
      <trkpt lat="44.69521" lon="4.22379">
        <ele>693.5742188</ele>
      </trkpt>
      <trkpt lat="44.69552" lon="4.22348">
        <ele>697.1328125</ele>
      </trkpt>
      <trkpt lat="44.69584" lon="4.22333">
        <ele>695.9765625</ele>
      </trkpt>
      <trkpt lat="44.69665" lon="4.22302">
        <ele>687.9296875</ele>
      </trkpt>
      <trkpt lat="44.69703" lon="4.22302">
        <ele>679.0546875</ele>
      </trkpt>
      <trkpt lat="44.69741" lon="4.22302">
        <ele>668.09375</ele>
      </trkpt>
      <trkpt lat="44.69779" lon="4.22287">
        <ele>659.546875</ele>
      </trkpt>
      <trkpt lat="44.69816" lon="4.22279">
        <ele>646.8085938</ele>
      </trkpt>
      <trkpt lat="44.69823" lon="4.22325">
        <ele>632.25</ele>
      </trkpt>
      <trkpt lat="44.69841" lon="4.22356">
        <ele>618.5703125</ele>
      </trkpt>
      <trkpt lat="44.69898" lon="4.22341">
        <ele>603.5117188</ele>
      </trkpt>
      <trkpt lat="44.69936" lon="4.22317">
        <ele>596.2539063</ele>
      </trkpt>
      <trkpt lat="44.69942" lon="4.22264">
        <ele>606.4648438</ele>
      </trkpt>
      <trkpt lat="44.70011" lon="4.22202">
        <ele>596.7460938</ele>
      </trkpt>
      <trkpt lat="44.70068" lon="4.22164">
        <ele>585.453125</ele>
      </trkpt>
      <trkpt lat="44.70099" lon="4.22133">
        <ele>580.6328125</ele>
      </trkpt>
      <trkpt lat="44.70137" lon="4.22103">
        <ele>573.9960938</ele>
      </trkpt>
      <trkpt lat="44.70168" lon="4.2208">
        <ele>567.5</ele>
      </trkpt>
      <trkpt lat="44.70238" lon="4.22018">
        <ele>557.9570313</ele>
      </trkpt>
      <trkpt lat="44.70282" lon="4.21987">
        <ele>549.7695313</ele>
      </trkpt>
      <trkpt lat="44.70313" lon="4.21949">
        <ele>542.7578125</ele>
      </trkpt>
      <trkpt lat="44.70332" lon="4.21911">
        <ele>538.9414063</ele>
      </trkpt>
      <trkpt lat="44.70351" lon="4.21857">
        <ele>534.0625</ele>
      </trkpt>
      <trkpt lat="44.70382" lon="4.21819">
        <ele>522.2773438</ele>
      </trkpt>
      <trkpt lat="44.70401" lon="4.21772">
        <ele>513.4335938</ele>
      </trkpt>
      <trkpt lat="44.70414" lon="4.21726">
        <ele>509.4882813</ele>
      </trkpt>
      <trkpt lat="44.70445" lon="4.21696">
        <ele>499.6875</ele>
      </trkpt>
      <trkpt lat="44.70483" lon="4.21673">
        <ele>493.1601563</ele>
      </trkpt>
      <trkpt lat="44.70521" lon="4.2165">
        <ele>494.03125</ele>
      </trkpt>
      <trkpt lat="44.70552" lon="4.21542">
        <ele>498.765625</ele>
      </trkpt>
      <trkpt lat="44.7059" lon="4.21473">
        <ele>521.15625</ele>
      </trkpt>
      <trkpt lat="44.70621" lon="4.21427">
        <ele>532.4921875</ele>
      </trkpt>
      <trkpt lat="44.70653" lon="4.21381">
        <ele>536.4570313</ele>
      </trkpt>
      <trkpt lat="44.70703" lon="4.21297">
        <ele>540.6445313</ele>
      </trkpt>
      <trkpt lat="44.70734" lon="4.21258">
        <ele>546.2695313</ele>
      </trkpt>
      <trkpt lat="44.70766" lon="4.21227">
        <ele>550.8789063</ele>
      </trkpt>
      <trkpt lat="44.7086" lon="4.21166">
        <ele>547.2617188</ele>
      </trkpt>
      <trkpt lat="44.7086" lon="4.21112">
        <ele>557.234375</ele>
      </trkpt>
      <trkpt lat="44.70992" lon="4.20928">
        <ele>560.7890625</ele>
      </trkpt>
      <trkpt lat="44.71011" lon="4.2089">
        <ele>564.4140625</ele>
      </trkpt>
      <trkpt lat="44.71042" lon="4.20844">
        <ele>568.1640625</ele>
      </trkpt>
      <trkpt lat="44.71036" lon="4.20828">
        <ele>572.390625</ele>
      </trkpt>
      <trkpt lat="44.71055" lon="4.2079">
        <ele>578.25</ele>
      </trkpt>
      <trkpt lat="44.71093" lon="4.20759">
        <ele>581.9414063</ele>
      </trkpt>
      <trkpt lat="44.7113" lon="4.20744">
        <ele>580.6640625</ele>
      </trkpt>
      <trkpt lat="44.7113" lon="4.20744">
        <ele>580.6640625</ele>
      </trkpt>
      <trkpt lat="44.71168" lon="4.20721">
        <ele>579.4960938</ele>
      </trkpt>
      <trkpt lat="44.712" lon="4.20698">
        <ele>579.0039063</ele>
      </trkpt>
      <trkpt lat="44.71225" lon="4.20667">
        <ele>581.0820313</ele>
      </trkpt>
      <trkpt lat="44.71269" lon="4.20621">
        <ele>585.953125</ele>
      </trkpt>
      <trkpt lat="44.71307" lon="4.20583">
        <ele>589.5820313</ele>
      </trkpt>
      <trkpt lat="44.71344" lon="4.20552">
        <ele>589.2421875</ele>
      </trkpt>
      <trkpt lat="44.71369" lon="4.20514">
        <ele>590.265625</ele>
      </trkpt>
      <trkpt lat="44.71395" lon="4.20483">
        <ele>590.0234375</ele>
      </trkpt>
      <trkpt lat="44.71426" lon="4.20452">
        <ele>590.3789063</ele>
      </trkpt>
      <trkpt lat="44.71451" lon="4.20429">
        <ele>591.6171875</ele>
      </trkpt>
      <trkpt lat="44.71476" lon="4.20391">
        <ele>597.359375</ele>
      </trkpt>
      <trkpt lat="44.71501" lon="4.2036">
        <ele>601.7617188</ele>
      </trkpt>
      <trkpt lat="44.71545" lon="4.20345">
        <ele>601.6640625</ele>
      </trkpt>
      <trkpt lat="44.71583" lon="4.20329">
        <ele>603.34375</ele>
      </trkpt>
      <trkpt lat="44.71615" lon="4.20314">
        <ele>604.7617188</ele>
      </trkpt>
      <trkpt lat="44.7164" lon="4.20291">
        <ele>606.8789063</ele>
      </trkpt>
      <trkpt lat="44.7164" lon="4.20237">
        <ele>613.0585938</ele>
      </trkpt>
      <trkpt lat="44.71608" lon="4.20214">
        <ele>617.265625</ele>
      </trkpt>
      <trkpt lat="44.71577" lon="4.20199">
        <ele>622.21875</ele>
      </trkpt>
      <trkpt lat="44.71567" lon="4.20186">
        <ele>624.7734375</ele>
      </trkpt>
      <trkpt lat="44.71567" lon="4.20171">
        <ele>626.7148438</ele>
      </trkpt>
      <trkpt lat="44.71569" lon="4.20156">
        <ele>628.4804688</ele>
      </trkpt>
      <trkpt lat="44.71572" lon="4.20143">
        <ele>629.859375</ele>
      </trkpt>
      <trkpt lat="44.7158" lon="4.20132">
        <ele>630.4101563</ele>
      </trkpt>
      <trkpt lat="44.71583" lon="4.20114">
        <ele>632.3632813</ele>
      </trkpt>
      <trkpt lat="44.71589" lon="4.20101">
        <ele>633.2617188</ele>
      </trkpt>
      <trkpt lat="44.7159" lon="4.20085">
        <ele>635.1523438</ele>
      </trkpt>
      <trkpt lat="44.71596" lon="4.20072">
        <ele>636.1640625</ele>
      </trkpt>
      <trkpt lat="44.71599" lon="4.20059">
        <ele>637.5507813</ele>
      </trkpt>
      <trkpt lat="44.71605" lon="4.20048">
        <ele>638.0976563</ele>
      </trkpt>
      <trkpt lat="44.7161" lon="4.20035">
        <ele>638.8828125</ele>
      </trkpt>
      <trkpt lat="44.71612" lon="4.2002">
        <ele>640.8203125</ele>
      </trkpt>
      <trkpt lat="44.71616" lon="4.20007">
        <ele>642.4179688</ele>
      </trkpt>
      <trkpt lat="44.71623" lon="4.19996">
        <ele>642.7578125</ele>
      </trkpt>
      <trkpt lat="44.71626" lon="4.19991">
        <ele>642.7460938</ele>
      </trkpt>
      <trkpt lat="44.71621" lon="4.19974">
        <ele>647.0703125</ele>
      </trkpt>
      <trkpt lat="44.71614" lon="4.19967">
        <ele>649.8085938</ele>
      </trkpt>
      <trkpt lat="44.71605" lon="4.19971">
        <ele>651.5195313</ele>
      </trkpt>
      <trkpt lat="44.71596" lon="4.19978">
        <ele>653.3984375</ele>
      </trkpt>
      <trkpt lat="44.71589" lon="4.19985">
        <ele>654.5195313</ele>
      </trkpt>
      <trkpt lat="44.71581" lon="4.19996">
        <ele>654.5742188</ele>
      </trkpt>
      <trkpt lat="44.71571" lon="4.20002">
        <ele>657.1796875</ele>
      </trkpt>
      <trkpt lat="44.71563" lon="4.20013">
        <ele>657.0039063</ele>
      </trkpt>
      <trkpt lat="44.71558" lon="4.20022">
        <ele>656.4570313</ele>
      </trkpt>
      <trkpt lat="44.71549" lon="4.20031">
        <ele>657.6132813</ele>
      </trkpt>
      <trkpt lat="44.71542" lon="4.20042">
        <ele>657.953125</ele>
      </trkpt>
      <trkpt lat="44.71538" lon="4.20055">
        <ele>656.1757813</ele>
      </trkpt>
      <trkpt lat="44.71531" lon="4.20068">
        <ele>655.5820313</ele>
      </trkpt>
      <trkpt lat="44.71522" lon="4.20072">
        <ele>657.7148438</ele>
      </trkpt>
      <trkpt lat="44.71511" lon="4.20077">
        <ele>660.3242188</ele>
      </trkpt>
      <trkpt lat="44.71501" lon="4.20079">
        <ele>663.515625</ele>
      </trkpt>
      <trkpt lat="44.71497" lon="4.20068">
        <ele>668.3242188</ele>
      </trkpt>
      <trkpt lat="44.71499" lon="4.20053">
        <ele>672.65625</ele>
      </trkpt>
      <trkpt lat="44.71504" lon="4.20042">
        <ele>673.7148438</ele>
      </trkpt>
      <trkpt lat="44.71515" lon="4.20031">
        <ele>672.25</ele>
      </trkpt>
      <trkpt lat="44.71522" lon="4.20022">
        <ele>671.4726563</ele>
      </trkpt>
      <trkpt lat="44.71524" lon="4.20009">
        <ele>674.4609375</ele>
      </trkpt>
      <trkpt lat="44.71524" lon="4.19993">
        <ele>678.8046875</ele>
      </trkpt>
      <trkpt lat="44.71528" lon="4.19978">
        <ele>680.625</ele>
      </trkpt>
      <trkpt lat="44.71535" lon="4.19967">
        <ele>679.890625</ele>
      </trkpt>
      <trkpt lat="44.71538" lon="4.19956">
        <ele>680.7070313</ele>
      </trkpt>
      <trkpt lat="44.71542" lon="4.19943">
        <ele>681.9960938</ele>
      </trkpt>
      <trkpt lat="44.71547" lon="4.19932">
        <ele>681.5585938</ele>
      </trkpt>
      <trkpt lat="44.71549" lon="4.19919">
        <ele>682.6796875</ele>
      </trkpt>
      <trkpt lat="44.71549" lon="4.19903">
        <ele>684.6679688</ele>
      </trkpt>
      <trkpt lat="44.71549" lon="4.19888">
        <ele>686.4101563</ele>
      </trkpt>
      <trkpt lat="44.71538" lon="4.19886">
        <ele>691.6679688</ele>
      </trkpt>
      <trkpt lat="44.71538" lon="4.19901">
        <ele>689.7109375</ele>
      </trkpt>
      <trkpt lat="44.71536" lon="4.19917">
        <ele>688.4296875</ele>
      </trkpt>
      <trkpt lat="44.71531" lon="4.19928">
        <ele>689.1796875</ele>
      </trkpt>
      <trkpt lat="44.71529" lon="4.19943">
        <ele>687.4335938</ele>
      </trkpt>
      <trkpt lat="44.71524" lon="4.19954">
        <ele>687.3945313</ele>
      </trkpt>
      <trkpt lat="44.71517" lon="4.19963">
        <ele>688.6015625</ele>
      </trkpt>
      <trkpt lat="44.7151" lon="4.19971">
        <ele>689.7109375</ele>
      </trkpt>
      <trkpt lat="44.71506" lon="4.19982">
        <ele>688.5898438</ele>
      </trkpt>
      <trkpt lat="44.71501" lon="4.19993">
        <ele>688.0820313</ele>
      </trkpt>
      <trkpt lat="44.71495" lon="4.20002">
        <ele>687.9804688</ele>
      </trkpt>
      <trkpt lat="44.71488" lon="4.20011">
        <ele>688.4296875</ele>
      </trkpt>
      <trkpt lat="44.71481" lon="4.20022">
        <ele>688.1132813</ele>
      </trkpt>
      <trkpt lat="44.71474" lon="4.20031">
        <ele>687.8984375</ele>
      </trkpt>
      <trkpt lat="44.71466" lon="4.20037">
        <ele>688.0546875</ele>
      </trkpt>
      <trkpt lat="44.71459" lon="4.20044">
        <ele>687.9921875</ele>
      </trkpt>
      <trkpt lat="44.7145" lon="4.2005">
        <ele>688.4492188</ele>
      </trkpt>
      <trkpt lat="44.71441" lon="4.20057">
        <ele>688.8945313</ele>
      </trkpt>
      <trkpt lat="44.71429" lon="4.20064">
        <ele>690.1484375</ele>
      </trkpt>
      <trkpt lat="44.7142" lon="4.2007">
        <ele>690.25</ele>
      </trkpt>
      <trkpt lat="44.71411" lon="4.20077">
        <ele>690.3320313</ele>
      </trkpt>
      <trkpt lat="44.71404" lon="4.2007">
        <ele>694.7734375</ele>
      </trkpt>
      <trkpt lat="44.71404" lon="4.20055">
        <ele>700.3007813</ele>
      </trkpt>
      <trkpt lat="44.71407" lon="4.20042">
        <ele>703.7148438</ele>
      </trkpt>
      <trkpt lat="44.71416" lon="4.20033">
        <ele>703.9726563</ele>
      </trkpt>
      <trkpt lat="44.71423" lon="4.20026">
        <ele>704.0351563</ele>
      </trkpt>
      <trkpt lat="44.7143" lon="4.20015">
        <ele>705.6210938</ele>
      </trkpt>
      <trkpt lat="44.71438" lon="4.20007">
        <ele>706.3828125</ele>
      </trkpt>
      <trkpt lat="44.71447" lon="4.19998">
        <ele>706.4140625</ele>
      </trkpt>
      <trkpt lat="44.71454" lon="4.19991">
        <ele>706.0429688</ele>
      </trkpt>
      <trkpt lat="44.71459" lon="4.1998">
        <ele>707.1914063</ele>
      </trkpt>
      <trkpt lat="44.71468" lon="4.19974">
        <ele>705.796875</ele>
      </trkpt>
      <trkpt lat="44.71474" lon="4.19963">
        <ele>706.484375</ele>
      </trkpt>
      <trkpt lat="44.71479" lon="4.1995">
        <ele>707.4882813</ele>
      </trkpt>
      <trkpt lat="44.71483" lon="4.19936">
        <ele>708.9257813</ele>
      </trkpt>
      <trkpt lat="44.71488" lon="4.19923">
        <ele>708.8125</ele>
      </trkpt>
      <trkpt lat="44.7149" lon="4.19908">
        <ele>710.5546875</ele>
      </trkpt>
      <trkpt lat="44.7149" lon="4.19892">
        <ele>712.53125</ele>
      </trkpt>
      <trkpt lat="44.7149" lon="4.19871">
        <ele>714.96875</ele>
      </trkpt>
      <trkpt lat="44.7149" lon="4.19855">
        <ele>716.4648438</ele>
      </trkpt>
      <trkpt lat="44.7149" lon="4.1984">
        <ele>717.7304688</ele>
      </trkpt>
      <trkpt lat="44.7149" lon="4.19824">
        <ele>718.9335938</ele>
      </trkpt>
      <trkpt lat="44.7149" lon="4.19809">
        <ele>719.8789063</ele>
      </trkpt>
      <trkpt lat="44.71493" lon="4.19794">
        <ele>719.15625</ele>
      </trkpt>
      <trkpt lat="44.71495" lon="4.19781">
        <ele>718.8828125</ele>
      </trkpt>
      <trkpt lat="44.71495" lon="4.19765">
        <ele>719.9296875</ele>
      </trkpt>
      <trkpt lat="44.71497" lon="4.19748">
        <ele>720.9804688</ele>
      </trkpt>
      <trkpt lat="44.71497" lon="4.19732">
        <ele>723.0390625</ele>
      </trkpt>
      <trkpt lat="44.71497" lon="4.19717">
        <ele>725.21875</ele>
      </trkpt>
      <trkpt lat="44.71499" lon="4.19699">
        <ele>727.9335938</ele>
      </trkpt>
      <trkpt lat="44.71502" lon="4.19686">
        <ele>729.9726563</ele>
      </trkpt>
      <trkpt lat="44.7151" lon="4.19675">
        <ele>731.5507813</ele>
      </trkpt>
      <trkpt lat="44.71515" lon="4.19667">
        <ele>733.125</ele>
      </trkpt>
      <trkpt lat="44.71526" lon="4.19664">
        <ele>733.1640625</ele>
      </trkpt>
      <trkpt lat="44.71538" lon="4.19664">
        <ele>734.8085938</ele>
      </trkpt>
      <trkpt lat="44.71551" lon="4.19664">
        <ele>736.4570313</ele>
      </trkpt>
      <trkpt lat="44.71562" lon="4.19664">
        <ele>738.8398438</ele>
      </trkpt>
      <trkpt lat="44.71572" lon="4.19669">
        <ele>739.8242188</ele>
      </trkpt>
      <trkpt lat="44.71583" lon="4.19671">
        <ele>741.4296875</ele>
      </trkpt>
      <trkpt lat="44.71592" lon="4.19675">
        <ele>741.3125</ele>
      </trkpt>
      <trkpt lat="44.71603" lon="4.19682">
        <ele>740.6445313</ele>
      </trkpt>
      <trkpt lat="44.71614" lon="4.19682">
        <ele>742.0546875</ele>
      </trkpt>
      <trkpt lat="44.71625" lon="4.19682">
        <ele>742.8320313</ele>
      </trkpt>
      <trkpt lat="44.71635" lon="4.1968">
        <ele>744.4804688</ele>
      </trkpt>
      <trkpt lat="44.71642" lon="4.19673">
        <ele>746.5390625</ele>
      </trkpt>
      <trkpt lat="44.7165" lon="4.19662">
        <ele>750.1054688</ele>
      </trkpt>
      <trkpt lat="44.71659" lon="4.19656">
        <ele>751.3945313</ele>
      </trkpt>
      <trkpt lat="44.71668" lon="4.19651">
        <ele>751.4492188</ele>
      </trkpt>
      <trkpt lat="44.71675" lon="4.19645">
        <ele>752.03125</ele>
      </trkpt>
      <trkpt lat="44.7168" lon="4.19634">
        <ele>754.421875</ele>
      </trkpt>
      <trkpt lat="44.71684" lon="4.19625">
        <ele>756.2773438</ele>
      </trkpt>
      <trkpt lat="44.71695" lon="4.19614">
        <ele>756.6601563</ele>
      </trkpt>
      <trkpt lat="44.71698" lon="4.19601">
        <ele>759.1601563</ele>
      </trkpt>
      <trkpt lat="44.71705" lon="4.19585">
        <ele>760.9960938</ele>
      </trkpt>
      <trkpt lat="44.71709" lon="4.19572">
        <ele>763.4492188</ele>
      </trkpt>
      <trkpt lat="44.71714" lon="4.19559">
        <ele>764.9375</ele>
      </trkpt>
      <trkpt lat="44.71723" lon="4.1955">
        <ele>763.5234375</ele>
      </trkpt>
      <trkpt lat="44.71729" lon="4.19537">
        <ele>765.0195313</ele>
      </trkpt>
      <trkpt lat="44.71736" lon="4.19526">
        <ele>764.984375</ele>
      </trkpt>
      <trkpt lat="44.71743" lon="4.19515">
        <ele>764.7070313</ele>
      </trkpt>
      <trkpt lat="44.71747" lon="4.19502">
        <ele>766.46875</ele>
      </trkpt>
      <trkpt lat="44.71752" lon="4.19487">
        <ele>767.734375</ele>
      </trkpt>
      <trkpt lat="44.71756" lon="4.19474">
        <ele>769.0273438</ele>
      </trkpt>
      <trkpt lat="44.71759" lon="4.19458">
        <ele>770.7890625</ele>
      </trkpt>
      <trkpt lat="44.71759" lon="4.19443">
        <ele>774.1054688</ele>
      </trkpt>
      <trkpt lat="44.71763" lon="4.19425">
        <ele>776.3476563</ele>
      </trkpt>
      <trkpt lat="44.71763" lon="4.1941">
        <ele>779.6445313</ele>
      </trkpt>
      <trkpt lat="44.71765" lon="4.19397">
        <ele>781.4140625</ele>
      </trkpt>
      <trkpt lat="44.71768" lon="4.19381">
        <ele>782.7070313</ele>
      </trkpt>
      <trkpt lat="44.71772" lon="4.19366">
        <ele>783.8476563</ele>
      </trkpt>
      <trkpt lat="44.71775" lon="4.19353">
        <ele>784.4570313</ele>
      </trkpt>
      <trkpt lat="44.71779" lon="4.1934">
        <ele>785.2773438</ele>
      </trkpt>
      <trkpt lat="44.71784" lon="4.19324">
        <ele>785.7109375</ele>
      </trkpt>
      <trkpt lat="44.7179" lon="4.19311">
        <ele>785.7539063</ele>
      </trkpt>
      <trkpt lat="44.7179" lon="4.19296">
        <ele>788.6640625</ele>
      </trkpt>
      <trkpt lat="44.71795" lon="4.19283">
        <ele>788.9101563</ele>
      </trkpt>
      <trkpt lat="44.71799" lon="4.19267">
        <ele>790.0820313</ele>
      </trkpt>
      <trkpt lat="44.71802" lon="4.19254">
        <ele>790.640625</ele>
      </trkpt>
      <trkpt lat="44.71806" lon="4.19239">
        <ele>791.6914063</ele>
      </trkpt>
      <trkpt lat="44.71808" lon="4.19226">
        <ele>793.2226563</ele>
      </trkpt>
      <trkpt lat="44.7181" lon="4.19204">
        <ele>795.9726563</ele>
      </trkpt>
      <trkpt lat="44.71811" lon="4.19188">
        <ele>797.5507813</ele>
      </trkpt>
      <trkpt lat="44.71811" lon="4.19173">
        <ele>800.3164063</ele>
      </trkpt>
      <trkpt lat="44.71813" lon="4.19156">
        <ele>802.8359375</ele>
      </trkpt>
      <trkpt lat="44.71813" lon="4.1914">
        <ele>805.953125</ele>
      </trkpt>
      <trkpt lat="44.71815" lon="4.19125">
        <ele>808.03125</ele>
      </trkpt>
      <trkpt lat="44.71819" lon="4.19109">
        <ele>809.1132813</ele>
      </trkpt>
      <trkpt lat="44.71822" lon="4.19096">
        <ele>809.90625</ele>
      </trkpt>
      <trkpt lat="44.71824" lon="4.19081">
        <ele>811.9453125</ele>
      </trkpt>
      <trkpt lat="44.71826" lon="4.19059">
        <ele>815.578125</ele>
      </trkpt>
      <trkpt lat="44.71828" lon="4.19044">
        <ele>817.7851563</ele>
      </trkpt>
      <trkpt lat="44.71831" lon="4.19028">
        <ele>818.8554688</ele>
      </trkpt>
      <trkpt lat="44.71838" lon="4.19015">
        <ele>819.046875</ele>
      </trkpt>
      <trkpt lat="44.71844" lon="4.19">
        <ele>821.3945313</ele>
      </trkpt>
      <trkpt lat="44.71838" lon="4.18989">
        <ele>826.1914063</ele>
      </trkpt>
      <trkpt lat="44.71838" lon="4.18971">
        <ele>830.953125</ele>
      </trkpt>
      <trkpt lat="44.7184" lon="4.18956">
        <ele>834.8476563</ele>
      </trkpt>
      <trkpt lat="44.71846" lon="4.18945">
        <ele>837.109375</ele>
      </trkpt>
      <trkpt lat="44.71856" lon="4.18945">
        <ele>835.3125</ele>
      </trkpt>
      <trkpt lat="44.71867" lon="4.18945">
        <ele>833.4023438</ele>
      </trkpt>
      <trkpt lat="44.71878" lon="4.18945">
        <ele>831.4609375</ele>
      </trkpt>
      <trkpt lat="44.71889" lon="4.18945">
        <ele>829.5976563</ele>
      </trkpt>
      <trkpt lat="44.71899" lon="4.18947">
        <ele>827.2539063</ele>
      </trkpt>
      <trkpt lat="44.71908" lon="4.18952">
        <ele>824.3828125</ele>
      </trkpt>
      <trkpt lat="44.71919" lon="4.18949">
        <ele>823.2617188</ele>
      </trkpt>
      <trkpt lat="44.7193" lon="4.18943">
        <ele>823.3007813</ele>
      </trkpt>
      <trkpt lat="44.71937" lon="4.18936">
        <ele>823.7421875</ele>
      </trkpt>
      <trkpt lat="44.71946" lon="4.1893">
        <ele>822.8125</ele>
      </trkpt>
      <trkpt lat="44.71946" lon="4.18914">
        <ele>826.046875</ele>
      </trkpt>
      <trkpt lat="44.71946" lon="4.18899">
        <ele>829.2148438</ele>
      </trkpt>
      <trkpt lat="44.71944" lon="4.18884">
        <ele>833.078125</ele>
      </trkpt>
      <trkpt lat="44.71944" lon="4.18868">
        <ele>835.796875</ele>
      </trkpt>
      <trkpt lat="44.71943" lon="4.18851">
        <ele>839.5039063</ele>
      </trkpt>
      <trkpt lat="44.71941" lon="4.18835">
        <ele>842.515625</ele>
      </trkpt>
      <trkpt lat="44.71941" lon="4.1882">
        <ele>844.7617188</ele>
      </trkpt>
      <trkpt lat="44.71941" lon="4.18802">
        <ele>847.3203125</ele>
      </trkpt>
      <trkpt lat="44.71941" lon="4.18787">
        <ele>849.0546875</ele>
      </trkpt>
      <trkpt lat="44.71941" lon="4.18772">
        <ele>850.7148438</ele>
      </trkpt>
      <trkpt lat="44.71944" lon="4.18752">
        <ele>851.0351563</ele>
      </trkpt>
      <trkpt lat="44.71948" lon="4.18734">
        <ele>851.1992188</ele>
      </trkpt>
      <trkpt lat="44.7195" lon="4.18719">
        <ele>852.1328125</ele>
      </trkpt>
      <trkpt lat="44.71952" lon="4.18704">
        <ele>854.1015625</ele>
      </trkpt>
      <trkpt lat="44.71955" lon="4.18691">
        <ele>855.078125</ele>
      </trkpt>
      <trkpt lat="44.71957" lon="4.18675">
        <ele>858.1015625</ele>
      </trkpt>
      <trkpt lat="44.7196" lon="4.18662">
        <ele>859.8710938</ele>
      </trkpt>
      <trkpt lat="44.71964" lon="4.18649">
        <ele>862.0898438</ele>
      </trkpt>
      <trkpt lat="44.71969" lon="4.18636">
        <ele>863.5546875</ele>
      </trkpt>
      <trkpt lat="44.71975" lon="4.18625">
        <ele>864.7734375</ele>
      </trkpt>
      <trkpt lat="44.71978" lon="4.18607">
        <ele>869.1484375</ele>
      </trkpt>
      <trkpt lat="44.71982" lon="4.18592">
        <ele>872.65625</ele>
      </trkpt>
      <trkpt lat="44.71986" lon="4.18581">
        <ele>874.9804688</ele>
      </trkpt>
      <trkpt lat="44.71996" lon="4.18579">
        <ele>872.1992188</ele>
      </trkpt>
      <trkpt lat="44.72007" lon="4.18581">
        <ele>867.5625</ele>
      </trkpt>
      <trkpt lat="44.72018" lon="4.18583">
        <ele>862.8867188</ele>
      </trkpt>
      <trkpt lat="44.72029" lon="4.18583">
        <ele>859.046875</ele>
      </trkpt>
      <trkpt lat="44.72036" lon="4.18574">
        <ele>859.4648438</ele>
      </trkpt>
      <trkpt lat="44.72041" lon="4.18555">
        <ele>863.7539063</ele>
      </trkpt>
      <trkpt lat="44.72047" lon="4.18537">
        <ele>866.7109375</ele>
      </trkpt>
      <trkpt lat="44.7205" lon="4.18522">
        <ele>869.5273438</ele>
      </trkpt>
      <trkpt lat="44.72054" lon="4.18506">
        <ele>871.734375</ele>
      </trkpt>
      <trkpt lat="44.72058" lon="4.18493">
        <ele>873.3515625</ele>
      </trkpt>
      <trkpt lat="44.72063" lon="4.18473">
        <ele>875.8085938</ele>
      </trkpt>
      <trkpt lat="44.72066" lon="4.18458">
        <ele>877.8359375</ele>
      </trkpt>
      <trkpt lat="44.72072" lon="4.18441">
        <ele>879.2382813</ele>
      </trkpt>
      <trkpt lat="44.72074" lon="4.18423">
        <ele>882.5820313</ele>
      </trkpt>
      <trkpt lat="44.72075" lon="4.18405">
        <ele>886.0585938</ele>
      </trkpt>
      <trkpt lat="44.72075" lon="4.18386">
        <ele>891.0390625</ele>
      </trkpt>
      <trkpt lat="44.72081" lon="4.1837">
        <ele>891.890625</ele>
      </trkpt>
      <trkpt lat="44.72084" lon="4.18353">
        <ele>894.1132813</ele>
      </trkpt>
      <trkpt lat="44.72086" lon="4.18337">
        <ele>897.0195313</ele>
      </trkpt>
      <trkpt lat="44.72092" lon="4.18326">
        <ele>896.9335938</ele>
      </trkpt>
      <trkpt lat="44.72095" lon="4.18311">
        <ele>898.4414063</ele>
      </trkpt>
      <trkpt lat="44.72099" lon="4.18294">
        <ele>900.7695313</ele>
      </trkpt>
      <trkpt lat="44.72104" lon="4.18274">
        <ele>903.0859375</ele>
      </trkpt>
      <trkpt lat="44.72108" lon="4.18258">
        <ele>905.0234375</ele>
      </trkpt>
      <trkpt lat="44.7211" lon="4.18243">
        <ele>908.03125</ele>
      </trkpt>
      <trkpt lat="44.72115" lon="4.18232">
        <ele>908.3710938</ele>
      </trkpt>
      <trkpt lat="44.72119" lon="4.18215">
        <ele>911.2578125</ele>
      </trkpt>
      <trkpt lat="44.7212" lon="4.18199">
        <ele>914.1601563</ele>
      </trkpt>
      <trkpt lat="44.72122" lon="4.18184">
        <ele>917.2617188</ele>
      </trkpt>
      <trkpt lat="44.72129" lon="4.18169">
        <ele>917.8085938</ele>
      </trkpt>
      <trkpt lat="44.72133" lon="4.18153">
        <ele>920.2539063</ele>
      </trkpt>
      <trkpt lat="44.72138" lon="4.18142">
        <ele>921.9414063</ele>
      </trkpt>
      <trkpt lat="44.72146" lon="4.18144">
        <ele>922.2421875</ele>
      </trkpt>
      <trkpt lat="44.72155" lon="4.18151">
        <ele>921.3671875</ele>
      </trkpt>
      <trkpt lat="44.72164" lon="4.18162">
        <ele>918.9179688</ele>
      </trkpt>
      <trkpt lat="44.72165" lon="4.18177">
        <ele>915.2148438</ele>
      </trkpt>
      <trkpt lat="44.72167" lon="4.18193">
        <ele>911.7851563</ele>
      </trkpt>
      <trkpt lat="44.72172" lon="4.18206">
        <ele>911.1835938</ele>
      </trkpt>
      <trkpt lat="44.72178" lon="4.18219">
        <ele>910.6132813</ele>
      </trkpt>
      <trkpt lat="44.72187" lon="4.18232">
        <ele>912.234375</ele>
      </trkpt>
      <trkpt lat="44.72196" lon="4.18243">
        <ele>915.2070313</ele>
      </trkpt>
      <trkpt lat="44.72199" lon="4.18256">
        <ele>914.71875</ele>
      </trkpt>
      <trkpt lat="44.72203" lon="4.18274">
        <ele>913.0820313</ele>
      </trkpt>
      <trkpt lat="44.7221" lon="4.18289">
        <ele>914.0507813</ele>
      </trkpt>
      <trkpt lat="44.72216" lon="4.18302">
        <ele>914.1640625</ele>
      </trkpt>
      <trkpt lat="44.72221" lon="4.18313">
        <ele>914.7070313</ele>
      </trkpt>
      <trkpt lat="44.72228" lon="4.18322">
        <ele>916.8945313</ele>
      </trkpt>
      <trkpt lat="44.72235" lon="4.18337">
        <ele>917.234375</ele>
      </trkpt>
      <trkpt lat="44.72237" lon="4.18353">
        <ele>914.0976563</ele>
      </trkpt>
      <trkpt lat="44.72246" lon="4.18362">
        <ele>916.796875</ele>
      </trkpt>
      <trkpt lat="44.72257" lon="4.1837">
        <ele>918.7382813</ele>
      </trkpt>
      <trkpt lat="44.72266" lon="4.18377">
        <ele>920.0742188</ele>
      </trkpt>
      <trkpt lat="44.72275" lon="4.1837">
        <ele>925.84375</ele>
      </trkpt>
      <trkpt lat="44.72282" lon="4.18359">
        <ele>930.0898438</ele>
      </trkpt>
      <trkpt lat="44.72286" lon="4.18344">
        <ele>935.7734375</ele>
      </trkpt>
      <trkpt lat="44.72289" lon="4.18326">
        <ele>942.1914063</ele>
      </trkpt>
      <trkpt lat="44.72293" lon="4.18313">
        <ele>946.9023438</ele>
      </trkpt>
      <trkpt lat="44.72302" lon="4.183">
        <ele>952.0859375</ele>
      </trkpt>
      <trkpt lat="44.72307" lon="4.18285">
        <ele>955.7890625</ele>
      </trkpt>
      <trkpt lat="44.72314" lon="4.18269">
        <ele>958.8945313</ele>
      </trkpt>
      <trkpt lat="44.72322" lon="4.18261">
        <ele>960.3085938</ele>
      </trkpt>
      <trkpt lat="44.72329" lon="4.1825">
        <ele>962.7460938</ele>
      </trkpt>
      <trkpt lat="44.72336" lon="4.18239">
        <ele>963.375</ele>
      </trkpt>
      <trkpt lat="44.72341" lon="4.18226">
        <ele>964.875</ele>
      </trkpt>
      <trkpt lat="44.72347" lon="4.1821">
        <ele>967.4492188</ele>
      </trkpt>
      <trkpt lat="44.72352" lon="4.18199">
        <ele>968.7148438</ele>
      </trkpt>
      <trkpt lat="44.72361" lon="4.18188">
        <ele>968.1875</ele>
      </trkpt>
      <trkpt lat="44.72368" lon="4.18175">
        <ele>969.5625</ele>
      </trkpt>
      <trkpt lat="44.72376" lon="4.18162">
        <ele>970.9375</ele>
      </trkpt>
      <trkpt lat="44.72381" lon="4.18147">
        <ele>973.3945313</ele>
      </trkpt>
      <trkpt lat="44.72386" lon="4.18133">
        <ele>975.140625</ele>
      </trkpt>
      <trkpt lat="44.72392" lon="4.1812">
        <ele>976.8789063</ele>
      </trkpt>
      <trkpt lat="44.72397" lon="4.18107">
        <ele>978.6210938</ele>
      </trkpt>
      <trkpt lat="44.72401" lon="4.18094">
        <ele>981.2070313</ele>
      </trkpt>
      <trkpt lat="44.72406" lon="4.18083">
        <ele>982.2382813</ele>
      </trkpt>
      <trkpt lat="44.72406" lon="4.18079">
        <ele>983.65625</ele>
      </trkpt>
      <trkpt lat="44.72431" lon="4.18017">
        <ele>991.2890625</ele>
      </trkpt>
      <trkpt lat="44.72438" lon="4.18006">
        <ele>992.5117188</ele>
      </trkpt>
      <trkpt lat="44.72447" lon="4.17998">
        <ele>992.8554688</ele>
      </trkpt>
      <trkpt lat="44.72456" lon="4.17991">
        <ele>992.8007813</ele>
      </trkpt>
      <trkpt lat="44.72467" lon="4.17984">
        <ele>992.171875</ele>
      </trkpt>
      <trkpt lat="44.72478" lon="4.1798">
        <ele>990.7070313</ele>
      </trkpt>
      <trkpt lat="44.7248" lon="4.17965">
        <ele>995.4726563</ele>
      </trkpt>
      <trkpt lat="44.72481" lon="4.17949">
        <ele>1000.5507813</ele>
      </trkpt>
      <trkpt lat="44.72489" lon="4.1794">
        <ele>1001.8984375</ele>
      </trkpt>
      <trkpt lat="44.72496" lon="4.17932">
        <ele>1003.2617188</ele>
      </trkpt>
      <trkpt lat="44.72503" lon="4.17923">
        <ele>1004.3867188</ele>
      </trkpt>
      <trkpt lat="44.7251" lon="4.17912">
        <ele>1006.265625</ele>
      </trkpt>
      <trkpt lat="44.72516" lon="4.17899">
        <ele>1009.609375</ele>
      </trkpt>
      <trkpt lat="44.72523" lon="4.17892">
        <ele>1009.8046875</ele>
      </trkpt>
      <trkpt lat="44.7253" lon="4.17883">
        <ele>1010.8867188</ele>
      </trkpt>
      <trkpt lat="44.72539" lon="4.17875">
        <ele>1011.75</ele>
      </trkpt>
      <trkpt lat="44.72546" lon="4.17864">
        <ele>1013.640625</ele>
      </trkpt>
      <trkpt lat="44.72555" lon="4.17855">
        <ele>1013.7734375</ele>
      </trkpt>
      <trkpt lat="44.72559" lon="4.17842">
        <ele>1017.3476563</ele>
      </trkpt>
      <trkpt lat="44.72566" lon="4.17833">
        <ele>1018.1796875</ele>
      </trkpt>
      <trkpt lat="44.72571" lon="4.17822">
        <ele>1020.21875</ele>
      </trkpt>
      <trkpt lat="44.72575" lon="4.17809">
        <ele>1023.3867188</ele>
      </trkpt>
      <trkpt lat="44.72578" lon="4.17794">
        <ele>1027.125</ele>
      </trkpt>
      <trkpt lat="44.7258" lon="4.17778">
        <ele>1031.4570313</ele>
      </trkpt>
      <trkpt lat="44.72584" lon="4.17765">
        <ele>1034.0078125</ele>
      </trkpt>
      <trkpt lat="44.72587" lon="4.17747">
        <ele>1037.640625</ele>
      </trkpt>
      <trkpt lat="44.72593" lon="4.17734">
        <ele>1039.296875</ele>
      </trkpt>
      <trkpt lat="44.72602" lon="4.17723">
        <ele>1038.9023438</ele>
      </trkpt>
      <trkpt lat="44.72607" lon="4.1771">
        <ele>1040.296875</ele>
      </trkpt>
      <trkpt lat="44.72614" lon="4.17701">
        <ele>1040.09375</ele>
      </trkpt>
      <trkpt lat="44.7262" lon="4.1769">
        <ele>1041.1132813</ele>
      </trkpt>
      <trkpt lat="44.72622" lon="4.17675">
        <ele>1043.8867188</ele>
      </trkpt>
      <trkpt lat="44.72627" lon="4.17662">
        <ele>1044.6132813</ele>
      </trkpt>
      <trkpt lat="44.72631" lon="4.17649">
        <ele>1046.03125</ele>
      </trkpt>
      <trkpt lat="44.72636" lon="4.17638">
        <ele>1046.2695313</ele>
      </trkpt>
      <trkpt lat="44.7264" lon="4.17625">
        <ele>1047.7695313</ele>
      </trkpt>
      <trkpt lat="44.72643" lon="4.17607">
        <ele>1050.0625</ele>
      </trkpt>
      <trkpt lat="44.72649" lon="4.17594">
        <ele>1050.9726563</ele>
      </trkpt>
      <trkpt lat="44.72654" lon="4.17579">
        <ele>1052.5976563</ele>
      </trkpt>
      <trkpt lat="44.72656" lon="4.17561">
        <ele>1055.7382813</ele>
      </trkpt>
      <trkpt lat="44.72659" lon="4.17548">
        <ele>1057.5078125</ele>
      </trkpt>
      <trkpt lat="44.72663" lon="4.17535">
        <ele>1060.0039063</ele>
      </trkpt>
      <trkpt lat="44.72665" lon="4.17519">
        <ele>1064.0546875</ele>
      </trkpt>
      <trkpt lat="44.72672" lon="4.17506">
        <ele>1066.6875</ele>
      </trkpt>
      <trkpt lat="44.72681" lon="4.17495">
        <ele>1068.4257813</ele>
      </trkpt>
      <trkpt lat="44.72692" lon="4.17482">
        <ele>1070.8320313</ele>
      </trkpt>
      <trkpt lat="44.72701" lon="4.17471">
        <ele>1072.5546875</ele>
      </trkpt>
      <trkpt lat="44.72708" lon="4.1746">
        <ele>1074.6523438</ele>
      </trkpt>
      <trkpt lat="44.72715" lon="4.17451">
        <ele>1076.0039063</ele>
      </trkpt>
      <trkpt lat="44.72724" lon="4.17443">
        <ele>1076.9101563</ele>
      </trkpt>
      <trkpt lat="44.72733" lon="4.17434">
        <ele>1077.5664063</ele>
      </trkpt>
      <trkpt lat="44.7274" lon="4.17425">
        <ele>1078.6015625</ele>
      </trkpt>
      <trkpt lat="44.72747" lon="4.17412">
        <ele>1081.1289063</ele>
      </trkpt>
      <trkpt lat="44.72751" lon="4.17399">
        <ele>1085.3359375</ele>
      </trkpt>
      <trkpt lat="44.72756" lon="4.17388">
        <ele>1088.921875</ele>
      </trkpt>
      <trkpt lat="44.72765" lon="4.17397">
        <ele>1085.8320313</ele>
      </trkpt>
      <trkpt lat="44.72771" lon="4.17408">
        <ele>1081.8554688</ele>
      </trkpt>
      <trkpt lat="44.72776" lon="4.17421">
        <ele>1077.171875</ele>
      </trkpt>
      <trkpt lat="44.72783" lon="4.17427">
        <ele>1075.6875</ele>
      </trkpt>
      <trkpt lat="44.72794" lon="4.17432">
        <ele>1075.34375</ele>
      </trkpt>
      <trkpt lat="44.72805" lon="4.17438">
        <ele>1074.25</ele>
      </trkpt>
      <trkpt lat="44.72816" lon="4.17438">
        <ele>1076.609375</ele>
      </trkpt>
      <trkpt lat="44.72826" lon="4.17432">
        <ele>1081.7734375</ele>
      </trkpt>
      <trkpt lat="44.72835" lon="4.17423">
        <ele>1086.6289063</ele>
      </trkpt>
      <trkpt lat="44.72844" lon="4.17414">
        <ele>1090.7460938</ele>
      </trkpt>
      <trkpt lat="44.72855" lon="4.17412">
        <ele>1092.0976563</ele>
      </trkpt>
      <trkpt lat="44.72864" lon="4.17408">
        <ele>1094.65625</ele>
      </trkpt>
      <trkpt lat="44.72875" lon="4.17403">
        <ele>1097.3242188</ele>
      </trkpt>
      <trkpt lat="44.72886" lon="4.17401">
        <ele>1098.921875</ele>
      </trkpt>
      <trkpt lat="44.72896" lon="4.17401">
        <ele>1099.3125</ele>
      </trkpt>
      <trkpt lat="44.72907" lon="4.17401">
        <ele>1099.6992188</ele>
      </trkpt>
      <trkpt lat="44.72918" lon="4.17399">
        <ele>1101.28125</ele>
      </trkpt>
      <trkpt lat="44.72929" lon="4.17392">
        <ele>1104.96875</ele>
      </trkpt>
      <trkpt lat="44.7294" lon="4.1739">
        <ele>1106.7226563</ele>
      </trkpt>
      <trkpt lat="44.7295" lon="4.1739">
        <ele>1107.5117188</ele>
      </trkpt>
      <trkpt lat="44.72961" lon="4.17388">
        <ele>1109.1601563</ele>
      </trkpt>
      <trkpt lat="44.72972" lon="4.17388">
        <ele>1109.7421875</ele>
      </trkpt>
      <trkpt lat="44.72983" lon="4.17386">
        <ele>1110.6210938</ele>
      </trkpt>
      <trkpt lat="44.72994" lon="4.17383">
        <ele>1111.46875</ele>
      </trkpt>
      <trkpt lat="44.73004" lon="4.17379">
        <ele>1113.421875</ele>
      </trkpt>
      <trkpt lat="44.73015" lon="4.17375">
        <ele>1115.3671875</ele>
      </trkpt>
      <trkpt lat="44.73026" lon="4.17368">
        <ele>1118.0195313</ele>
      </trkpt>
      <trkpt lat="44.73031" lon="4.17357">
        <ele>1122.1484375</ele>
      </trkpt>
      <trkpt lat="44.73022" lon="4.17353">
        <ele>1123.6367188</ele>
      </trkpt>
      <trkpt lat="44.73011" lon="4.17351">
        <ele>1124.5039063</ele>
      </trkpt>
      <trkpt lat="44.73001" lon="4.17348">
        <ele>1125.375</ele>
      </trkpt>
      <trkpt lat="44.7299" lon="4.17346">
        <ele>1126.2460938</ele>
      </trkpt>
      <trkpt lat="44.72979" lon="4.17344">
        <ele>1127.1132813</ele>
      </trkpt>
      <trkpt lat="44.72968" lon="4.17344">
        <ele>1127.0585938</ele>
      </trkpt>
      <trkpt lat="44.72958" lon="4.17344">
        <ele>1126.28125</ele>
      </trkpt>
      <trkpt lat="44.72947" lon="4.17342">
        <ele>1126.375</ele>
      </trkpt>
      <trkpt lat="44.72936" lon="4.1734">
        <ele>1126.46875</ele>
      </trkpt>
      <trkpt lat="44.72925" lon="4.17337">
        <ele>1126.5585938</ele>
      </trkpt>
      <trkpt lat="44.72913" lon="4.17331">
        <ele>1128.2617188</ele>
      </trkpt>
      <trkpt lat="44.72905" lon="4.17324">
        <ele>1130.171875</ele>
      </trkpt>
      <trkpt lat="44.72895" lon="4.17318">
        <ele>1131.765625</ele>
      </trkpt>
      <trkpt lat="44.72884" lon="4.17311">
        <ele>1133.3164063</ele>
      </trkpt>
      <trkpt lat="44.72873" lon="4.17304">
        <ele>1134.546875</ele>
      </trkpt>
      <trkpt lat="44.72862" lon="4.17302">
        <ele>1134.1523438</ele>
      </trkpt>
      <trkpt lat="44.72852" lon="4.17298">
        <ele>1134.3828125</ele>
      </trkpt>
      <trkpt lat="44.72841" lon="4.17296">
        <ele>1133.8320313</ele>
      </trkpt>
      <trkpt lat="44.7283" lon="4.17293">
        <ele>1133.1601563</ele>
      </trkpt>
      <trkpt lat="44.72821" lon="4.17289">
        <ele>1131.515625</ele>
      </trkpt>
      <trkpt lat="44.72832" lon="4.17287">
        <ele>1135.34375</ele>
      </trkpt>
      <trkpt lat="44.72843" lon="4.17285">
        <ele>1137.375</ele>
      </trkpt>
      <trkpt lat="44.72853" lon="4.17283">
        <ele>1139.4726563</ele>
      </trkpt>
      <trkpt lat="44.72868" lon="4.17283">
        <ele>1141.375</ele>
      </trkpt>
      <trkpt lat="44.72879" lon="4.17283">
        <ele>1142.8007813</ele>
      </trkpt>
      <trkpt lat="44.72889" lon="4.17283">
        <ele>1144.0195313</ele>
      </trkpt>
      <trkpt lat="44.72902" lon="4.17283">
        <ele>1144.9257813</ele>
      </trkpt>
      <trkpt lat="44.72913" lon="4.17283">
        <ele>1145.703125</ele>
      </trkpt>
      <trkpt lat="44.72923" lon="4.17285">
        <ele>1145.8984375</ele>
      </trkpt>
      <trkpt lat="44.72927" lon="4.17285">
        <ele>1146.2382813</ele>
      </trkpt>
      <trkpt lat="44.72943" lon="4.17285">
        <ele>1147.7109375</ele>
      </trkpt>
      <trkpt lat="44.72954" lon="4.17283">
        <ele>1149.3554688</ele>
      </trkpt>
      <trkpt lat="44.72965" lon="4.17278">
        <ele>1151.8710938</ele>
      </trkpt>
      <trkpt lat="44.72974" lon="4.17272">
        <ele>1154.9609375</ele>
      </trkpt>
      <trkpt lat="44.72985" lon="4.17265">
        <ele>1157.9570313</ele>
      </trkpt>
      <trkpt lat="44.72995" lon="4.17263">
        <ele>1159.2109375</ele>
      </trkpt>
      <trkpt lat="44.73006" lon="4.17258">
        <ele>1161.0078125</ele>
      </trkpt>
      <trkpt lat="44.73015" lon="4.17254">
        <ele>1162.7460938</ele>
      </trkpt>
      <trkpt lat="44.73019" lon="4.17241">
        <ele>1167.859375</ele>
      </trkpt>
      <trkpt lat="44.7301" lon="4.17236">
        <ele>1169.7226563</ele>
      </trkpt>
      <trkpt lat="44.72997" lon="4.17236">
        <ele>1170.0273438</ele>
      </trkpt>
      <trkpt lat="44.72985" lon="4.17236">
        <ele>1169.5898438</ele>
      </trkpt>
      <trkpt lat="44.72974" lon="4.17236">
        <ele>1169.1992188</ele>
      </trkpt>
      <trkpt lat="44.72961" lon="4.17234">
        <ele>1169.2929688</ele>
      </trkpt>
      <trkpt lat="44.7295" lon="4.1723">
        <ele>1170.140625</ele>
      </trkpt>
      <trkpt lat="44.7294" lon="4.17223">
        <ele>1171.7734375</ele>
      </trkpt>
      <trkpt lat="44.72929" lon="4.17221">
        <ele>1171.828125</ele>
      </trkpt>
      <trkpt lat="44.72918" lon="4.17215">
        <ele>1173.8359375</ele>
      </trkpt>
      <trkpt lat="44.72909" lon="4.17208">
        <ele>1175.7070313</ele>
      </trkpt>
      <trkpt lat="44.72898" lon="4.17206">
        <ele>1175.1054688</ele>
      </trkpt>
      <trkpt lat="44.72886" lon="4.17199">
        <ele>1176.1289063</ele>
      </trkpt>
      <trkpt lat="44.72875" lon="4.17195">
        <ele>1175.7578125</ele>
      </trkpt>
      <trkpt lat="44.72864" lon="4.17193">
        <ele>1174.375</ele>
      </trkpt>
      <trkpt lat="44.72853" lon="4.17188">
        <ele>1173.8632813</ele>
      </trkpt>
      <trkpt lat="44.72844" lon="4.17184">
        <ele>1173.7148438</ele>
      </trkpt>
      <trkpt lat="44.7285" lon="4.17173">
        <ele>1179.5507813</ele>
      </trkpt>
      <trkpt lat="44.72857" lon="4.17164">
        <ele>1185.0429688</ele>
      </trkpt>
      <trkpt lat="44.7287" lon="4.17164">
        <ele>1188.1875</ele>
      </trkpt>
      <trkpt lat="44.72882" lon="4.17164">
        <ele>1191.3320313</ele>
      </trkpt>
      <trkpt lat="44.72893" lon="4.17166">
        <ele>1192.0351563</ele>
      </trkpt>
      <trkpt lat="44.72904" lon="4.17171">
        <ele>1191.3007813</ele>
      </trkpt>
      <trkpt lat="44.72916" lon="4.17171">
        <ele>1192.734375</ele>
      </trkpt>
      <trkpt lat="44.72927" lon="4.17173">
        <ele>1192.8007813</ele>
      </trkpt>
      <trkpt lat="44.7294" lon="4.17173">
        <ele>1193.9921875</ele>
      </trkpt>
      <trkpt lat="44.7295" lon="4.17175">
        <ele>1194.1054688</ele>
      </trkpt>
      <trkpt lat="44.72963" lon="4.17175">
        <ele>1195.4648438</ele>
      </trkpt>
      <trkpt lat="44.72974" lon="4.17177">
        <ele>1195.1796875</ele>
      </trkpt>
      <trkpt lat="44.72985" lon="4.17177">
        <ele>1195.359375</ele>
      </trkpt>
      <trkpt lat="44.72997" lon="4.17177">
        <ele>1195.5546875</ele>
      </trkpt>
      <trkpt lat="44.7301" lon="4.17177">
        <ele>1194.890625</ele>
      </trkpt>
      <trkpt lat="44.7302" lon="4.17175">
        <ele>1195.359375</ele>
      </trkpt>
      <trkpt lat="44.73029" lon="4.17166">
        <ele>1198.3710938</ele>
      </trkpt>
      <trkpt lat="44.73038" lon="4.17162">
        <ele>1198.7734375</ele>
      </trkpt>
      <trkpt lat="44.73047" lon="4.17153">
        <ele>1200.6835938</ele>
      </trkpt>
      <trkpt lat="44.73055" lon="4.17142">
        <ele>1203.671875</ele>
      </trkpt>
      <trkpt lat="44.73062" lon="4.17133">
        <ele>1205.8359375</ele>
      </trkpt>
      <trkpt lat="44.73067" lon="4.17116">
        <ele>1211.4726563</ele>
      </trkpt>
      <trkpt lat="44.73073" lon="4.17094">
        <ele>1217.4140625</ele>
      </trkpt>
      <trkpt lat="44.73076" lon="4.17079">
        <ele>1221.0117188</ele>
      </trkpt>
      <trkpt lat="44.73087" lon="4.17074">
        <ele>1219.6289063</ele>
      </trkpt>
      <trkpt lat="44.731" lon="4.17074">
        <ele>1216.9140625</ele>
      </trkpt>
      <trkpt lat="44.7311" lon="4.17072">
        <ele>1215.2695313</ele>
      </trkpt>
      <trkpt lat="44.73123" lon="4.1707">
        <ele>1214.0625</ele>
      </trkpt>
      <trkpt lat="44.73135" lon="4.17065">
        <ele>1213.0273438</ele>
      </trkpt>
      <trkpt lat="44.73148" lon="4.17061">
        <ele>1213.1953125</ele>
      </trkpt>
      <trkpt lat="44.73157" lon="4.17052">
        <ele>1213.4179688</ele>
      </trkpt>
      <trkpt lat="44.73164" lon="4.17043">
        <ele>1213.2734375</ele>
      </trkpt>
      <trkpt lat="44.7317" lon="4.17037">
        <ele>1213.2929688</ele>
      </trkpt>
      <trkpt lat="44.73189" lon="4.17022">
        <ele>1211.9882813</ele>
      </trkpt>
      <trkpt lat="44.73202" lon="4.17022">
        <ele>1211.0429688</ele>
      </trkpt>
      <trkpt lat="44.73214" lon="4.17022">
        <ele>1210.1015625</ele>
      </trkpt>
      <trkpt lat="44.73225" lon="4.17024">
        <ele>1209.7773438</ele>
      </trkpt>
      <trkpt lat="44.7324" lon="4.17026">
        <ele>1209.5546875</ele>
      </trkpt>
      <trkpt lat="44.7325" lon="4.17028">
        <ele>1209.6328125</ele>
      </trkpt>
      <trkpt lat="44.73261" lon="4.1703">
        <ele>1209.9492188</ele>
      </trkpt>
      <trkpt lat="44.73274" lon="4.1703">
        <ele>1209.9492188</ele>
      </trkpt>
      <trkpt lat="44.73285" lon="4.17024">
        <ele>1209.7265625</ele>
      </trkpt>
      <trkpt lat="44.73292" lon="4.17013">
        <ele>1208.90625</ele>
      </trkpt>
      <trkpt lat="44.73299" lon="4.17">
        <ele>1208.0507813</ele>
      </trkpt>
      <trkpt lat="44.73304" lon="4.16986">
        <ele>1207.4648438</ele>
      </trkpt>
      <trkpt lat="44.73308" lon="4.16971">
        <ele>1206.8984375</ele>
      </trkpt>
      <trkpt lat="44.73311" lon="4.16956">
        <ele>1206.4648438</ele>
      </trkpt>
      <trkpt lat="44.73313" lon="4.1694">
        <ele>1205.5742188</ele>
      </trkpt>
      <trkpt lat="44.73315" lon="4.16927">
        <ele>1204.4765625</ele>
      </trkpt>
      <trkpt lat="44.73317" lon="4.16912">
        <ele>1203.1835938</ele>
      </trkpt>
      <trkpt lat="44.73319" lon="4.16896">
        <ele>1202.171875</ele>
      </trkpt>
      <trkpt lat="44.73322" lon="4.16883">
        <ele>1202.0273438</ele>
      </trkpt>
      <trkpt lat="44.73328" lon="4.16868">
        <ele>1202.2734375</ele>
      </trkpt>
      <trkpt lat="44.73331" lon="4.16855">
        <ele>1202.0703125</ele>
      </trkpt>
      <trkpt lat="44.73337" lon="4.16844">
        <ele>1202.2382813</ele>
      </trkpt>
      <trkpt lat="44.73342" lon="4.16831">
        <ele>1202.0898438</ele>
      </trkpt>
      <trkpt lat="44.73347" lon="4.16818">
        <ele>1201.515625</ele>
      </trkpt>
      <trkpt lat="44.73353" lon="4.16807">
        <ele>1201.2851563</ele>
      </trkpt>
      <trkpt lat="44.73358" lon="4.16796">
        <ele>1201.0585938</ele>
      </trkpt>
      <trkpt lat="44.73367" lon="4.16789">
        <ele>1202.7851563</ele>
      </trkpt>
      <trkpt lat="44.7338" lon="4.16785">
        <ele>1206.0703125</ele>
      </trkpt>
      <trkpt lat="44.73391" lon="4.1678">
        <ele>1208.1953125</ele>
      </trkpt>
      <trkpt lat="44.73405" lon="4.1678">
        <ele>1211.1796875</ele>
      </trkpt>
      <trkpt lat="44.73416" lon="4.16785">
        <ele>1213.8164063</ele>
      </trkpt>
      <trkpt lat="44.73423" lon="4.16791">
        <ele>1215.5390625</ele>
      </trkpt>
      <trkpt lat="44.73434" lon="4.16798">
        <ele>1217.6523438</ele>
      </trkpt>
      <trkpt lat="44.73443" lon="4.16809">
        <ele>1220.0742188</ele>
      </trkpt>
      <trkpt lat="44.73453" lon="4.16818">
        <ele>1221.484375</ele>
      </trkpt>
      <trkpt lat="44.73462" lon="4.16826">
        <ele>1222.6445313</ele>
      </trkpt>
      <trkpt lat="44.73471" lon="4.16833">
        <ele>1223.0703125</ele>
      </trkpt>
      <trkpt lat="44.7348" lon="4.16842">
        <ele>1223.0546875</ele>
      </trkpt>
      <trkpt lat="44.73489" lon="4.16848">
        <ele>1222.8789063</ele>
      </trkpt>
      <trkpt lat="44.73498" lon="4.16857">
        <ele>1222.8007813</ele>
      </trkpt>
      <trkpt lat="44.73507" lon="4.16861">
        <ele>1222.1484375</ele>
      </trkpt>
      <trkpt lat="44.73516" lon="4.16868">
        <ele>1221.6484375</ele>
      </trkpt>
      <trkpt lat="44.73527" lon="4.1687">
        <ele>1220.5898438</ele>
      </trkpt>
      <trkpt lat="44.73538" lon="4.16877">
        <ele>1219.8085938</ele>
      </trkpt>
      <trkpt lat="44.73549" lon="4.16881">
        <ele>1218.984375</ele>
      </trkpt>
      <trkpt lat="44.73559" lon="4.16886">
        <ele>1218.78125</ele>
      </trkpt>
      <trkpt lat="44.73568" lon="4.1689">
        <ele>1218.7734375</ele>
      </trkpt>
      <trkpt lat="44.73579" lon="4.1689">
        <ele>1218.3867188</ele>
      </trkpt>
      <trkpt lat="44.73592" lon="4.16881">
        <ele>1217.59375</ele>
      </trkpt>
      <trkpt lat="44.73601" lon="4.16872">
        <ele>1216.6484375</ele>
      </trkpt>
      <trkpt lat="44.7361" lon="4.16861">
        <ele>1215.84375</ele>
      </trkpt>
      <trkpt lat="44.73615" lon="4.16848">
        <ele>1215.0703125</ele>
      </trkpt>
      <trkpt lat="44.7362" lon="4.16837">
        <ele>1214.4609375</ele>
      </trkpt>
      <trkpt lat="44.73626" lon="4.16822">
        <ele>1212.953125</ele>
      </trkpt>
      <trkpt lat="44.73629" lon="4.16809">
        <ele>1211.2304688</ele>
      </trkpt>
      <trkpt lat="44.73635" lon="4.16798">
        <ele>1210.2265625</ele>
      </trkpt>
      <trkpt lat="44.73642" lon="4.16787">
        <ele>1208.9335938</ele>
      </trkpt>
      <trkpt lat="44.73649" lon="4.16778">
        <ele>1207.8359375</ele>
      </trkpt>
      <trkpt lat="44.73658" lon="4.16774">
        <ele>1207.6015625</ele>
      </trkpt>
      <trkpt lat="44.73669" lon="4.16771">
        <ele>1206.9453125</ele>
      </trkpt>
      <trkpt lat="44.73682" lon="4.16771">
        <ele>1205.9609375</ele>
      </trkpt>
      <trkpt lat="44.73692" lon="4.16776">
        <ele>1206.0898438</ele>
      </trkpt>
      <trkpt lat="44.737" lon="4.16785">
        <ele>1206.3476563</ele>
      </trkpt>
      <trkpt lat="44.73709" lon="4.16793">
        <ele>1206.296875</ele>
      </trkpt>
      <trkpt lat="44.73716" lon="4.16804">
        <ele>1207.4179688</ele>
      </trkpt>
      <trkpt lat="44.73723" lon="4.16818">
        <ele>1208.8125</ele>
      </trkpt>
      <trkpt lat="44.73728" lon="4.16829">
        <ele>1210.328125</ele>
      </trkpt>
      <trkpt lat="44.73737" lon="4.16833">
        <ele>1209.2382813</ele>
      </trkpt>
      <trkpt lat="44.7375" lon="4.16833">
        <ele>1206.3203125</ele>
      </trkpt>
      <trkpt lat="44.73761" lon="4.16833">
        <ele>1204.1367188</ele>
      </trkpt>
      <trkpt lat="44.73771" lon="4.16833">
        <ele>1201.9570313</ele>
      </trkpt>
      <trkpt lat="44.73786" lon="4.16833">
        <ele>1199.4140625</ele>
      </trkpt>
      <trkpt lat="44.73797" lon="4.16829">
        <ele>1195.5742188</ele>
      </trkpt>
      <trkpt lat="44.73806" lon="4.16824">
        <ele>1192.125</ele>
      </trkpt>
      <trkpt lat="44.73815" lon="4.16818">
        <ele>1187.90625</ele>
      </trkpt>
      <trkpt lat="44.73827" lon="4.16813">
        <ele>1184.15625</ele>
      </trkpt>
      <trkpt lat="44.73838" lon="4.16807">
        <ele>1180.1054688</ele>
      </trkpt>
      <trkpt lat="44.7385" lon="4.16802">
        <ele>1177.5117188</ele>
      </trkpt>
      <trkpt lat="44.7385" lon="4.168">
        <ele>1176.859375</ele>
      </trkpt>
      <trkpt lat="44.73841" lon="4.1679">
        <ele>1176.0234375</ele>
      </trkpt>
      <trkpt lat="44.73872" lon="4.16813">
        <ele>1183.2304688</ele>
      </trkpt>
    </trkseg>
  </trk>
</gpx>